<?xml version="1.0" encoding="UTF-8" standalone="no" ?>
<gpx xmlns="http://www.topografix.com/GPX/1/1" xmlns:xsi="http://www.w3.org/2001/XMLSchema-instance" xsi:schemaLocation="http://www.topografix.com/GPX/1/1 http://www.topografix.com/GPX/1/1/gpx.xsd" version="1.1" creator="VisuGPX - https://www.visugpx.com">
  <metadata>
    <name>Les balades du confinement</name>
  </metadata>
  <trk>
    <name><![CDATA[26 mars]]></name>
    <trkseg>
      <trkpt lat="43.55033" lon="1.47649">
        <ele>236.617</ele>
        <time>2020-03-26T16:11:39Z</time>
      </trkpt>
      <trkpt lat="43.55035" lon="1.47645">
        <ele>228.094</ele>
        <time>2020-03-26T16:11:45Z</time>
      </trkpt>
      <trkpt lat="43.55029" lon="1.47653">
        <ele>228.6</ele>
        <time>2020-03-26T16:11:50Z</time>
      </trkpt>
      <trkpt lat="43.55026" lon="1.47659">
        <ele>230.277</ele>
        <time>2020-03-26T16:11:56Z</time>
      </trkpt>
      <trkpt lat="43.55026" lon="1.47662">
        <ele>228.665</ele>
        <time>2020-03-26T16:12:02Z</time>
      </trkpt>
      <trkpt lat="43.55028" lon="1.4766">
        <ele>224.629</ele>
        <time>2020-03-26T16:12:08Z</time>
      </trkpt>
      <trkpt lat="43.5503" lon="1.47662">
        <ele>224.466</ele>
        <time>2020-03-26T16:12:13Z</time>
      </trkpt>
      <trkpt lat="43.55029" lon="1.47661">
        <ele>224.118</ele>
        <time>2020-03-26T16:12:19Z</time>
      </trkpt>
      <trkpt lat="43.55028" lon="1.47664">
        <ele>223.699</ele>
        <time>2020-03-26T16:12:25Z</time>
      </trkpt>
      <trkpt lat="43.55023" lon="1.47669">
        <ele>223.234</ele>
        <time>2020-03-26T16:12:30Z</time>
      </trkpt>
      <trkpt lat="43.55017" lon="1.47674">
        <ele>222.713</ele>
        <time>2020-03-26T16:12:35Z</time>
      </trkpt>
      <trkpt lat="43.55011" lon="1.4768">
        <ele>222.081</ele>
        <time>2020-03-26T16:12:41Z</time>
      </trkpt>
      <trkpt lat="43.55007" lon="1.47681">
        <ele>221.388</ele>
        <time>2020-03-26T16:12:47Z</time>
      </trkpt>
      <trkpt lat="43.55002" lon="1.47683">
        <ele>220.76</ele>
        <time>2020-03-26T16:12:52Z</time>
      </trkpt>
      <trkpt lat="43.54996" lon="1.47688">
        <ele>220.013</ele>
        <time>2020-03-26T16:12:58Z</time>
      </trkpt>
      <trkpt lat="43.5499" lon="1.47689">
        <ele>219.27</ele>
        <time>2020-03-26T16:13:04Z</time>
      </trkpt>
      <trkpt lat="43.54984" lon="1.47691">
        <ele>218.578</ele>
        <time>2020-03-26T16:13:10Z</time>
      </trkpt>
      <trkpt lat="43.54978" lon="1.47695">
        <ele>218.027</ele>
        <time>2020-03-26T16:13:15Z</time>
      </trkpt>
      <trkpt lat="43.54973" lon="1.47698">
        <ele>217.413</ele>
        <time>2020-03-26T16:13:21Z</time>
      </trkpt>
      <trkpt lat="43.54969" lon="1.47703">
        <ele>216.948</ele>
        <time>2020-03-26T16:13:26Z</time>
      </trkpt>
      <trkpt lat="43.54964" lon="1.47707">
        <ele>216.415</ele>
        <time>2020-03-26T16:13:32Z</time>
      </trkpt>
      <trkpt lat="43.54958" lon="1.4771">
        <ele>215.982</ele>
        <time>2020-03-26T16:13:37Z</time>
      </trkpt>
      <trkpt lat="43.54952" lon="1.47713">
        <ele>215.554</ele>
        <time>2020-03-26T16:13:42Z</time>
      </trkpt>
      <trkpt lat="43.54947" lon="1.47715">
        <ele>215.078</ele>
        <time>2020-03-26T16:13:48Z</time>
      </trkpt>
      <trkpt lat="43.54942" lon="1.47718">
        <ele>214.729</ele>
        <time>2020-03-26T16:13:53Z</time>
      </trkpt>
      <trkpt lat="43.54938" lon="1.47721">
        <ele>214.394</ele>
        <time>2020-03-26T16:13:58Z</time>
      </trkpt>
      <trkpt lat="43.54932" lon="1.47725">
        <ele>213.998</ele>
        <time>2020-03-26T16:14:04Z</time>
      </trkpt>
      <trkpt lat="43.54925" lon="1.4773">
        <ele>213.606</ele>
        <time>2020-03-26T16:14:10Z</time>
      </trkpt>
      <trkpt lat="43.54919" lon="1.47734">
        <ele>213.225</ele>
        <time>2020-03-26T16:14:16Z</time>
      </trkpt>
      <trkpt lat="43.54914" lon="1.47738">
        <ele>212.86</ele>
        <time>2020-03-26T16:14:22Z</time>
      </trkpt>
      <trkpt lat="43.54911" lon="1.47739">
        <ele>212.585</ele>
        <time>2020-03-26T16:14:27Z</time>
      </trkpt>
      <trkpt lat="43.54905" lon="1.47743">
        <ele>212.275</ele>
        <time>2020-03-26T16:14:33Z</time>
      </trkpt>
      <trkpt lat="43.54897" lon="1.47746">
        <ele>211.995</ele>
        <time>2020-03-26T16:14:39Z</time>
      </trkpt>
      <trkpt lat="43.54891" lon="1.4775">
        <ele>211.764</ele>
        <time>2020-03-26T16:14:44Z</time>
      </trkpt>
      <trkpt lat="43.54885" lon="1.47755">
        <ele>211.495</ele>
        <time>2020-03-26T16:14:50Z</time>
      </trkpt>
      <trkpt lat="43.54879" lon="1.4776">
        <ele>211.284</ele>
        <time>2020-03-26T16:14:55Z</time>
      </trkpt>
      <trkpt lat="43.54871" lon="1.47764">
        <ele>211.037</ele>
        <time>2020-03-26T16:15:01Z</time>
      </trkpt>
      <trkpt lat="43.54866" lon="1.47766">
        <ele>210.847</ele>
        <time>2020-03-26T16:15:06Z</time>
      </trkpt>
      <trkpt lat="43.54862" lon="1.47766">
        <ele>210.667</ele>
        <time>2020-03-26T16:15:12Z</time>
      </trkpt>
      <trkpt lat="43.54857" lon="1.47762">
        <ele>210.511</ele>
        <time>2020-03-26T16:15:17Z</time>
      </trkpt>
      <trkpt lat="43.54851" lon="1.4776">
        <ele>210.349</ele>
        <time>2020-03-26T16:15:23Z</time>
      </trkpt>
      <trkpt lat="43.54848" lon="1.47759">
        <ele>210.245</ele>
        <time>2020-03-26T16:15:29Z</time>
      </trkpt>
      <trkpt lat="43.54847" lon="1.47759">
        <ele>210.215</ele>
        <time>2020-03-26T16:15:35Z</time>
      </trkpt>
      <trkpt lat="43.54847" lon="1.47759">
        <ele>210.184</ele>
        <time>2020-03-26T16:15:41Z</time>
      </trkpt>
      <trkpt lat="43.54845" lon="1.47761">
        <ele>210.127</ele>
        <time>2020-03-26T16:15:46Z</time>
      </trkpt>
      <trkpt lat="43.54841" lon="1.47764">
        <ele>210.037</ele>
        <time>2020-03-26T16:15:52Z</time>
      </trkpt>
      <trkpt lat="43.54835" lon="1.47769">
        <ele>209.945</ele>
        <time>2020-03-26T16:15:58Z</time>
      </trkpt>
      <trkpt lat="43.54829" lon="1.47774">
        <ele>209.842</ele>
        <time>2020-03-26T16:16:04Z</time>
      </trkpt>
      <trkpt lat="43.54824" lon="1.47777">
        <ele>209.752</ele>
        <time>2020-03-26T16:16:09Z</time>
      </trkpt>
      <trkpt lat="43.54819" lon="1.47779">
        <ele>209.656</ele>
        <time>2020-03-26T16:16:15Z</time>
      </trkpt>
      <trkpt lat="43.54813" lon="1.47783">
        <ele>209.575</ele>
        <time>2020-03-26T16:16:21Z</time>
      </trkpt>
      <trkpt lat="43.54804" lon="1.47786">
        <ele>209.504</ele>
        <time>2020-03-26T16:16:27Z</time>
      </trkpt>
      <trkpt lat="43.54797" lon="1.47785">
        <ele>209.443</ele>
        <time>2020-03-26T16:16:33Z</time>
      </trkpt>
      <trkpt lat="43.54791" lon="1.47777">
        <ele>209.4</ele>
        <time>2020-03-26T16:16:39Z</time>
      </trkpt>
      <trkpt lat="43.54787" lon="1.47772">
        <ele>209.371</ele>
        <time>2020-03-26T16:16:45Z</time>
      </trkpt>
      <trkpt lat="43.54783" lon="1.47766">
        <ele>209.346</ele>
        <time>2020-03-26T16:16:50Z</time>
      </trkpt>
      <trkpt lat="43.5478" lon="1.47761">
        <ele>209.32</ele>
        <time>2020-03-26T16:16:55Z</time>
      </trkpt>
      <trkpt lat="43.54775" lon="1.47758">
        <ele>209.301</ele>
        <time>2020-03-26T16:17:00Z</time>
      </trkpt>
      <trkpt lat="43.54771" lon="1.47754">
        <ele>209.282</ele>
        <time>2020-03-26T16:17:06Z</time>
      </trkpt>
      <trkpt lat="43.5477" lon="1.47749">
        <ele>209.268</ele>
        <time>2020-03-26T16:17:11Z</time>
      </trkpt>
      <trkpt lat="43.54766" lon="1.47738">
        <ele>209.258</ele>
        <time>2020-03-26T16:17:17Z</time>
      </trkpt>
      <trkpt lat="43.54763" lon="1.47731">
        <ele>209.26</ele>
        <time>2020-03-26T16:17:22Z</time>
      </trkpt>
      <trkpt lat="43.54759" lon="1.47727">
        <ele>209.257</ele>
        <time>2020-03-26T16:17:28Z</time>
      </trkpt>
      <trkpt lat="43.54756" lon="1.47719">
        <ele>209.244</ele>
        <time>2020-03-26T16:17:34Z</time>
      </trkpt>
      <trkpt lat="43.54752" lon="1.47713">
        <ele>209.229</ele>
        <time>2020-03-26T16:17:40Z</time>
      </trkpt>
      <trkpt lat="43.5475" lon="1.47707">
        <ele>209.226</ele>
        <time>2020-03-26T16:17:45Z</time>
      </trkpt>
      <trkpt lat="43.54748" lon="1.47704">
        <ele>209.246</ele>
        <time>2020-03-26T16:17:51Z</time>
      </trkpt>
      <trkpt lat="43.54745" lon="1.47702">
        <ele>209.267</ele>
        <time>2020-03-26T16:17:57Z</time>
      </trkpt>
      <trkpt lat="43.54742" lon="1.47697">
        <ele>209.29</ele>
        <time>2020-03-26T16:18:02Z</time>
      </trkpt>
      <trkpt lat="43.54736" lon="1.47689">
        <ele>209.319</ele>
        <time>2020-03-26T16:18:08Z</time>
      </trkpt>
      <trkpt lat="43.54732" lon="1.47684">
        <ele>209.345</ele>
        <time>2020-03-26T16:18:13Z</time>
      </trkpt>
      <trkpt lat="43.54727" lon="1.47678">
        <ele>209.384</ele>
        <time>2020-03-26T16:18:19Z</time>
      </trkpt>
      <trkpt lat="43.54722" lon="1.47674">
        <ele>209.424</ele>
        <time>2020-03-26T16:18:25Z</time>
      </trkpt>
      <trkpt lat="43.54718" lon="1.47671">
        <ele>209.472</ele>
        <time>2020-03-26T16:18:31Z</time>
      </trkpt>
      <trkpt lat="43.54713" lon="1.47664">
        <ele>209.526</ele>
        <time>2020-03-26T16:18:37Z</time>
      </trkpt>
      <trkpt lat="43.54709" lon="1.4766">
        <ele>209.581</ele>
        <time>2020-03-26T16:18:43Z</time>
      </trkpt>
      <trkpt lat="43.54702" lon="1.47655">
        <ele>209.638</ele>
        <time>2020-03-26T16:18:49Z</time>
      </trkpt>
      <trkpt lat="43.54697" lon="1.4765">
        <ele>209.697</ele>
        <time>2020-03-26T16:18:55Z</time>
      </trkpt>
      <trkpt lat="43.54695" lon="1.47646">
        <ele>209.734</ele>
        <time>2020-03-26T16:19:01Z</time>
      </trkpt>
      <trkpt lat="43.54695" lon="1.47646">
        <ele>209.746</ele>
        <time>2020-03-26T16:19:06Z</time>
      </trkpt>
      <trkpt lat="43.54694" lon="1.47639">
        <ele>209.792</ele>
        <time>2020-03-26T16:19:12Z</time>
      </trkpt>
      <trkpt lat="43.54691" lon="1.4763">
        <ele>209.826</ele>
        <time>2020-03-26T16:19:18Z</time>
      </trkpt>
      <trkpt lat="43.54689" lon="1.47625">
        <ele>209.849</ele>
        <time>2020-03-26T16:19:23Z</time>
      </trkpt>
      <trkpt lat="43.54683" lon="1.47616">
        <ele>209.875</ele>
        <time>2020-03-26T16:19:29Z</time>
      </trkpt>
      <trkpt lat="43.5468" lon="1.4761">
        <ele>209.898</ele>
        <time>2020-03-26T16:19:34Z</time>
      </trkpt>
      <trkpt lat="43.54676" lon="1.47603">
        <ele>209.938</ele>
        <time>2020-03-26T16:19:40Z</time>
      </trkpt>
      <trkpt lat="43.54673" lon="1.47596">
        <ele>209.975</ele>
        <time>2020-03-26T16:19:45Z</time>
      </trkpt>
      <trkpt lat="43.54668" lon="1.47589">
        <ele>210.011</ele>
        <time>2020-03-26T16:19:50Z</time>
      </trkpt>
      <trkpt lat="43.54665" lon="1.47583">
        <ele>210.045</ele>
        <time>2020-03-26T16:19:55Z</time>
      </trkpt>
      <trkpt lat="43.54661" lon="1.47576">
        <ele>210.087</ele>
        <time>2020-03-26T16:20:01Z</time>
      </trkpt>
      <trkpt lat="43.54658" lon="1.47569">
        <ele>210.129</ele>
        <time>2020-03-26T16:20:07Z</time>
      </trkpt>
      <trkpt lat="43.54654" lon="1.47563">
        <ele>210.164</ele>
        <time>2020-03-26T16:20:12Z</time>
      </trkpt>
      <trkpt lat="43.5465" lon="1.47557">
        <ele>210.201</ele>
        <time>2020-03-26T16:20:18Z</time>
      </trkpt>
      <trkpt lat="43.54648" lon="1.47551">
        <ele>210.231</ele>
        <time>2020-03-26T16:20:23Z</time>
      </trkpt>
      <trkpt lat="43.54645" lon="1.47545">
        <ele>210.276</ele>
        <time>2020-03-26T16:20:29Z</time>
      </trkpt>
      <trkpt lat="43.54642" lon="1.4754">
        <ele>210.306</ele>
        <time>2020-03-26T16:20:34Z</time>
      </trkpt>
      <trkpt lat="43.54639" lon="1.47536">
        <ele>210.325</ele>
        <time>2020-03-26T16:20:39Z</time>
      </trkpt>
      <trkpt lat="43.54638" lon="1.47535">
        <ele>210.329</ele>
        <time>2020-03-26T16:20:45Z</time>
      </trkpt>
      <trkpt lat="43.54638" lon="1.47535">
        <ele>210.33</ele>
        <time>2020-03-26T16:20:51Z</time>
      </trkpt>
      <trkpt lat="43.54635" lon="1.47532">
        <ele>210.337</ele>
        <time>2020-03-26T16:20:56Z</time>
      </trkpt>
      <trkpt lat="43.54633" lon="1.47528">
        <ele>210.343</ele>
        <time>2020-03-26T16:21:02Z</time>
      </trkpt>
      <trkpt lat="43.5463" lon="1.47521">
        <ele>210.334</ele>
        <time>2020-03-26T16:21:08Z</time>
      </trkpt>
      <trkpt lat="43.54626" lon="1.47516">
        <ele>210.319</ele>
        <time>2020-03-26T16:21:14Z</time>
      </trkpt>
      <trkpt lat="43.54622" lon="1.47509">
        <ele>210.306</ele>
        <time>2020-03-26T16:21:19Z</time>
      </trkpt>
      <trkpt lat="43.54619" lon="1.47502">
        <ele>210.288</ele>
        <time>2020-03-26T16:21:24Z</time>
      </trkpt>
      <trkpt lat="43.54617" lon="1.47495">
        <ele>210.284</ele>
        <time>2020-03-26T16:21:30Z</time>
      </trkpt>
      <trkpt lat="43.54609" lon="1.47491">
        <ele>210.287</ele>
        <time>2020-03-26T16:21:35Z</time>
      </trkpt>
      <trkpt lat="43.54599" lon="1.47493">
        <ele>210.298</ele>
        <time>2020-03-26T16:21:41Z</time>
      </trkpt>
      <trkpt lat="43.54593" lon="1.47493">
        <ele>210.321</ele>
        <time>2020-03-26T16:21:47Z</time>
      </trkpt>
      <trkpt lat="43.54586" lon="1.47493">
        <ele>210.344</ele>
        <time>2020-03-26T16:21:53Z</time>
      </trkpt>
      <trkpt lat="43.5458" lon="1.47492">
        <ele>210.38</ele>
        <time>2020-03-26T16:21:59Z</time>
      </trkpt>
      <trkpt lat="43.54574" lon="1.47498">
        <ele>210.414</ele>
        <time>2020-03-26T16:22:04Z</time>
      </trkpt>
      <trkpt lat="43.54569" lon="1.47506">
        <ele>210.461</ele>
        <time>2020-03-26T16:22:10Z</time>
      </trkpt>
      <trkpt lat="43.54564" lon="1.47512">
        <ele>210.499</ele>
        <time>2020-03-26T16:22:15Z</time>
      </trkpt>
      <trkpt lat="43.54558" lon="1.47518">
        <ele>210.549</ele>
        <time>2020-03-26T16:22:21Z</time>
      </trkpt>
      <trkpt lat="43.54553" lon="1.47522">
        <ele>210.6</ele>
        <time>2020-03-26T16:22:26Z</time>
      </trkpt>
      <trkpt lat="43.54547" lon="1.47528">
        <ele>210.667</ele>
        <time>2020-03-26T16:22:32Z</time>
      </trkpt>
      <trkpt lat="43.54541" lon="1.47532">
        <ele>210.73</ele>
        <time>2020-03-26T16:22:37Z</time>
      </trkpt>
      <trkpt lat="43.54534" lon="1.47538">
        <ele>210.811</ele>
        <time>2020-03-26T16:22:43Z</time>
      </trkpt>
      <trkpt lat="43.54526" lon="1.4754">
        <ele>210.905</ele>
        <time>2020-03-26T16:22:49Z</time>
      </trkpt>
      <trkpt lat="43.54523" lon="1.47545">
        <ele>211.007</ele>
        <time>2020-03-26T16:22:55Z</time>
      </trkpt>
      <trkpt lat="43.5452" lon="1.47553">
        <ele>211.106</ele>
        <time>2020-03-26T16:23:01Z</time>
      </trkpt>
      <trkpt lat="43.54518" lon="1.47562">
        <ele>211.206</ele>
        <time>2020-03-26T16:23:07Z</time>
      </trkpt>
      <trkpt lat="43.54516" lon="1.47568">
        <ele>211.283</ele>
        <time>2020-03-26T16:23:12Z</time>
      </trkpt>
      <trkpt lat="43.54512" lon="1.47575">
        <ele>211.352</ele>
        <time>2020-03-26T16:23:17Z</time>
      </trkpt>
      <trkpt lat="43.54508" lon="1.47582">
        <ele>211.43</ele>
        <time>2020-03-26T16:23:23Z</time>
      </trkpt>
      <trkpt lat="43.54503" lon="1.47587">
        <ele>211.485</ele>
        <time>2020-03-26T16:23:28Z</time>
      </trkpt>
      <trkpt lat="43.54499" lon="1.47595">
        <ele>211.546</ele>
        <time>2020-03-26T16:23:34Z</time>
      </trkpt>
      <trkpt lat="43.54494" lon="1.47602">
        <ele>211.605</ele>
        <time>2020-03-26T16:23:40Z</time>
      </trkpt>
      <trkpt lat="43.54491" lon="1.47608">
        <ele>211.649</ele>
        <time>2020-03-26T16:23:45Z</time>
      </trkpt>
      <trkpt lat="43.54486" lon="1.47613">
        <ele>211.701</ele>
        <time>2020-03-26T16:23:51Z</time>
      </trkpt>
      <trkpt lat="43.54483" lon="1.47616">
        <ele>211.741</ele>
        <time>2020-03-26T16:23:56Z</time>
      </trkpt>
      <trkpt lat="43.54477" lon="1.47621">
        <ele>211.784</ele>
        <time>2020-03-26T16:24:02Z</time>
      </trkpt>
      <trkpt lat="43.54473" lon="1.47628">
        <ele>211.815</ele>
        <time>2020-03-26T16:24:08Z</time>
      </trkpt>
      <trkpt lat="43.54469" lon="1.47634">
        <ele>211.84</ele>
        <time>2020-03-26T16:24:14Z</time>
      </trkpt>
      <trkpt lat="43.54464" lon="1.47641">
        <ele>211.858</ele>
        <time>2020-03-26T16:24:19Z</time>
      </trkpt>
      <trkpt lat="43.54462" lon="1.47642">
        <ele>211.871</ele>
        <time>2020-03-26T16:24:25Z</time>
      </trkpt>
      <trkpt lat="43.54459" lon="1.47642">
        <ele>211.901</ele>
        <time>2020-03-26T16:24:31Z</time>
      </trkpt>
      <trkpt lat="43.54456" lon="1.47646">
        <ele>211.922</ele>
        <time>2020-03-26T16:24:36Z</time>
      </trkpt>
      <trkpt lat="43.54452" lon="1.4765">
        <ele>211.941</ele>
        <time>2020-03-26T16:24:42Z</time>
      </trkpt>
      <trkpt lat="43.54447" lon="1.47656">
        <ele>211.952</ele>
        <time>2020-03-26T16:24:47Z</time>
      </trkpt>
      <trkpt lat="43.54442" lon="1.47664">
        <ele>211.966</ele>
        <time>2020-03-26T16:24:53Z</time>
      </trkpt>
      <trkpt lat="43.54437" lon="1.47669">
        <ele>211.984</ele>
        <time>2020-03-26T16:24:59Z</time>
      </trkpt>
      <trkpt lat="43.54431" lon="1.47675">
        <ele>212</ele>
        <time>2020-03-26T16:25:05Z</time>
      </trkpt>
      <trkpt lat="43.54426" lon="1.47681">
        <ele>212.017</ele>
        <time>2020-03-26T16:25:11Z</time>
      </trkpt>
      <trkpt lat="43.54422" lon="1.47685">
        <ele>212.032</ele>
        <time>2020-03-26T16:25:16Z</time>
      </trkpt>
      <trkpt lat="43.54417" lon="1.4769">
        <ele>212.048</ele>
        <time>2020-03-26T16:25:21Z</time>
      </trkpt>
      <trkpt lat="43.54411" lon="1.47695">
        <ele>212.064</ele>
        <time>2020-03-26T16:25:27Z</time>
      </trkpt>
      <trkpt lat="43.54407" lon="1.47699">
        <ele>212.079</ele>
        <time>2020-03-26T16:25:32Z</time>
      </trkpt>
      <trkpt lat="43.54401" lon="1.47704">
        <ele>212.096</ele>
        <time>2020-03-26T16:25:38Z</time>
      </trkpt>
      <trkpt lat="43.54396" lon="1.47708">
        <ele>212.112</ele>
        <time>2020-03-26T16:25:43Z</time>
      </trkpt>
      <trkpt lat="43.5439" lon="1.47711">
        <ele>212.126</ele>
        <time>2020-03-26T16:25:48Z</time>
      </trkpt>
      <trkpt lat="43.54384" lon="1.47715">
        <ele>212.142</ele>
        <time>2020-03-26T16:25:54Z</time>
      </trkpt>
      <trkpt lat="43.54379" lon="1.47719">
        <ele>212.156</ele>
        <time>2020-03-26T16:25:59Z</time>
      </trkpt>
      <trkpt lat="43.54374" lon="1.47723">
        <ele>212.175</ele>
        <time>2020-03-26T16:26:05Z</time>
      </trkpt>
      <trkpt lat="43.54369" lon="1.47726">
        <ele>212.193</ele>
        <time>2020-03-26T16:26:11Z</time>
      </trkpt>
      <trkpt lat="43.54365" lon="1.47731">
        <ele>212.208</ele>
        <time>2020-03-26T16:26:16Z</time>
      </trkpt>
      <trkpt lat="43.54361" lon="1.47734">
        <ele>212.22</ele>
        <time>2020-03-26T16:26:21Z</time>
      </trkpt>
      <trkpt lat="43.54355" lon="1.47739">
        <ele>212.231</ele>
        <time>2020-03-26T16:26:27Z</time>
      </trkpt>
      <trkpt lat="43.54349" lon="1.47742">
        <ele>212.238</ele>
        <time>2020-03-26T16:26:33Z</time>
      </trkpt>
      <trkpt lat="43.5434" lon="1.47747">
        <ele>212.246</ele>
        <time>2020-03-26T16:26:39Z</time>
      </trkpt>
      <trkpt lat="43.54334" lon="1.47753">
        <ele>212.257</ele>
        <time>2020-03-26T16:26:45Z</time>
      </trkpt>
      <trkpt lat="43.54327" lon="1.47755">
        <ele>212.267</ele>
        <time>2020-03-26T16:26:50Z</time>
      </trkpt>
      <trkpt lat="43.54321" lon="1.47759">
        <ele>212.284</ele>
        <time>2020-03-26T16:26:56Z</time>
      </trkpt>
      <trkpt lat="43.54315" lon="1.47763">
        <ele>212.304</ele>
        <time>2020-03-26T16:27:02Z</time>
      </trkpt>
      <trkpt lat="43.5431" lon="1.47767">
        <ele>212.326</ele>
        <time>2020-03-26T16:27:08Z</time>
      </trkpt>
      <trkpt lat="43.54303" lon="1.47769">
        <ele>212.347</ele>
        <time>2020-03-26T16:27:14Z</time>
      </trkpt>
      <trkpt lat="43.543" lon="1.47773">
        <ele>212.36</ele>
        <time>2020-03-26T16:27:20Z</time>
      </trkpt>
      <trkpt lat="43.54296" lon="1.47776">
        <ele>212.37</ele>
        <time>2020-03-26T16:27:25Z</time>
      </trkpt>
      <trkpt lat="43.54291" lon="1.47778">
        <ele>212.38</ele>
        <time>2020-03-26T16:27:30Z</time>
      </trkpt>
      <trkpt lat="43.54285" lon="1.47783">
        <ele>212.392</ele>
        <time>2020-03-26T16:27:36Z</time>
      </trkpt>
      <trkpt lat="43.54279" lon="1.47788">
        <ele>212.398</ele>
        <time>2020-03-26T16:27:42Z</time>
      </trkpt>
      <trkpt lat="43.54275" lon="1.47791">
        <ele>212.405</ele>
        <time>2020-03-26T16:27:48Z</time>
      </trkpt>
      <trkpt lat="43.5427" lon="1.47793">
        <ele>212.411</ele>
        <time>2020-03-26T16:27:53Z</time>
      </trkpt>
      <trkpt lat="43.54265" lon="1.47798">
        <ele>212.416</ele>
        <time>2020-03-26T16:27:59Z</time>
      </trkpt>
      <trkpt lat="43.54258" lon="1.47802">
        <ele>212.426</ele>
        <time>2020-03-26T16:28:05Z</time>
      </trkpt>
      <trkpt lat="43.54253" lon="1.47805">
        <ele>212.44</ele>
        <time>2020-03-26T16:28:11Z</time>
      </trkpt>
      <trkpt lat="43.54249" lon="1.47807">
        <ele>212.45</ele>
        <time>2020-03-26T16:28:16Z</time>
      </trkpt>
      <trkpt lat="43.54244" lon="1.47812">
        <ele>212.457</ele>
        <time>2020-03-26T16:28:22Z</time>
      </trkpt>
      <trkpt lat="43.5424" lon="1.47815">
        <ele>212.463</ele>
        <time>2020-03-26T16:28:28Z</time>
      </trkpt>
      <trkpt lat="43.5424" lon="1.47816">
        <ele>212.465</ele>
        <time>2020-03-26T16:28:33Z</time>
      </trkpt>
      <trkpt lat="43.54241" lon="1.47817">
        <ele>212.468</ele>
        <time>2020-03-26T16:28:39Z</time>
      </trkpt>
      <trkpt lat="43.54241" lon="1.47819">
        <ele>212.47</ele>
        <time>2020-03-26T16:28:44Z</time>
      </trkpt>
      <trkpt lat="43.54241" lon="1.47824">
        <ele>212.479</ele>
        <time>2020-03-26T16:28:50Z</time>
      </trkpt>
      <trkpt lat="43.5424" lon="1.47827">
        <ele>212.481</ele>
        <time>2020-03-26T16:28:55Z</time>
      </trkpt>
      <trkpt lat="43.54237" lon="1.4783">
        <ele>212.492</ele>
        <time>2020-03-26T16:29:01Z</time>
      </trkpt>
      <trkpt lat="43.54239" lon="1.47829">
        <ele>212.497</ele>
        <time>2020-03-26T16:29:06Z</time>
      </trkpt>
      <trkpt lat="43.5424" lon="1.47828">
        <ele>212.505</ele>
        <time>2020-03-26T16:29:12Z</time>
      </trkpt>
      <trkpt lat="43.54239" lon="1.47827">
        <ele>212.506</ele>
        <time>2020-03-26T16:29:18Z</time>
      </trkpt>
      <trkpt lat="43.54239" lon="1.47827">
        <ele>212.508</ele>
        <time>2020-03-26T16:29:23Z</time>
      </trkpt>
      <trkpt lat="43.5424" lon="1.47825">
        <ele>212.519</ele>
        <time>2020-03-26T16:29:29Z</time>
      </trkpt>
      <trkpt lat="43.54241" lon="1.47824">
        <ele>212.53</ele>
        <time>2020-03-26T16:29:34Z</time>
      </trkpt>
      <trkpt lat="43.54241" lon="1.47823">
        <ele>212.556</ele>
        <time>2020-03-26T16:29:40Z</time>
      </trkpt>
      <trkpt lat="43.54241" lon="1.4782">
        <ele>212.572</ele>
        <time>2020-03-26T16:29:45Z</time>
      </trkpt>
      <trkpt lat="43.54239" lon="1.47816">
        <ele>212.6</ele>
        <time>2020-03-26T16:29:50Z</time>
      </trkpt>
      <trkpt lat="43.54238" lon="1.47814">
        <ele>212.635</ele>
        <time>2020-03-26T16:29:56Z</time>
      </trkpt>
      <trkpt lat="43.54232" lon="1.47815">
        <ele>212.669</ele>
        <time>2020-03-26T16:30:02Z</time>
      </trkpt>
      <trkpt lat="43.54228" lon="1.47819">
        <ele>212.701</ele>
        <time>2020-03-26T16:30:07Z</time>
      </trkpt>
      <trkpt lat="43.54221" lon="1.47821">
        <ele>212.737</ele>
        <time>2020-03-26T16:30:13Z</time>
      </trkpt>
      <trkpt lat="43.54215" lon="1.47826">
        <ele>212.765</ele>
        <time>2020-03-26T16:30:18Z</time>
      </trkpt>
      <trkpt lat="43.54207" lon="1.47831">
        <ele>212.796</ele>
        <time>2020-03-26T16:30:24Z</time>
      </trkpt>
      <trkpt lat="43.54201" lon="1.47833">
        <ele>212.818</ele>
        <time>2020-03-26T16:30:29Z</time>
      </trkpt>
      <trkpt lat="43.54193" lon="1.47836">
        <ele>212.841</ele>
        <time>2020-03-26T16:30:35Z</time>
      </trkpt>
      <trkpt lat="43.54187" lon="1.47838">
        <ele>212.859</ele>
        <time>2020-03-26T16:30:40Z</time>
      </trkpt>
      <trkpt lat="43.54187" lon="1.47841">
        <ele>212.865</ele>
        <time>2020-03-26T16:30:46Z</time>
      </trkpt>
      <trkpt lat="43.54186" lon="1.47842">
        <ele>212.871</ele>
        <time>2020-03-26T16:30:51Z</time>
      </trkpt>
      <trkpt lat="43.54185" lon="1.47843">
        <ele>212.873</ele>
        <time>2020-03-26T16:30:57Z</time>
      </trkpt>
      <trkpt lat="43.54185" lon="1.47843">
        <ele>212.87</ele>
        <time>2020-03-26T16:31:03Z</time>
      </trkpt>
      <trkpt lat="43.54185" lon="1.47843">
        <ele>212.869</ele>
        <time>2020-03-26T16:31:08Z</time>
      </trkpt>
      <trkpt lat="43.54184" lon="1.47845">
        <ele>212.862</ele>
        <time>2020-03-26T16:31:14Z</time>
      </trkpt>
      <trkpt lat="43.54179" lon="1.47847">
        <ele>212.859</ele>
        <time>2020-03-26T16:31:19Z</time>
      </trkpt>
      <trkpt lat="43.54175" lon="1.47849">
        <ele>212.855</ele>
        <time>2020-03-26T16:31:25Z</time>
      </trkpt>
      <trkpt lat="43.54169" lon="1.47854">
        <ele>212.847</ele>
        <time>2020-03-26T16:31:31Z</time>
      </trkpt>
      <trkpt lat="43.54162" lon="1.4786">
        <ele>212.835</ele>
        <time>2020-03-26T16:31:37Z</time>
      </trkpt>
      <trkpt lat="43.54157" lon="1.47862">
        <ele>212.825</ele>
        <time>2020-03-26T16:31:42Z</time>
      </trkpt>
      <trkpt lat="43.54151" lon="1.47864">
        <ele>212.816</ele>
        <time>2020-03-26T16:31:47Z</time>
      </trkpt>
      <trkpt lat="43.54144" lon="1.47867">
        <ele>212.805</ele>
        <time>2020-03-26T16:31:53Z</time>
      </trkpt>
      <trkpt lat="43.54138" lon="1.47869">
        <ele>212.798</ele>
        <time>2020-03-26T16:31:58Z</time>
      </trkpt>
      <trkpt lat="43.54132" lon="1.47872">
        <ele>212.791</ele>
        <time>2020-03-26T16:32:04Z</time>
      </trkpt>
      <trkpt lat="43.54127" lon="1.47874">
        <ele>212.787</ele>
        <time>2020-03-26T16:32:09Z</time>
      </trkpt>
      <trkpt lat="43.54123" lon="1.47875">
        <ele>212.79</ele>
        <time>2020-03-26T16:32:15Z</time>
      </trkpt>
      <trkpt lat="43.54117" lon="1.47879">
        <ele>212.797</ele>
        <time>2020-03-26T16:32:21Z</time>
      </trkpt>
      <trkpt lat="43.54111" lon="1.47881">
        <ele>212.81</ele>
        <time>2020-03-26T16:32:27Z</time>
      </trkpt>
      <trkpt lat="43.54108" lon="1.47885">
        <ele>212.824</ele>
        <time>2020-03-26T16:32:32Z</time>
      </trkpt>
      <trkpt lat="43.54108" lon="1.47888">
        <ele>212.832</ele>
        <time>2020-03-26T16:32:38Z</time>
      </trkpt>
      <trkpt lat="43.54107" lon="1.47892">
        <ele>212.845</ele>
        <time>2020-03-26T16:32:44Z</time>
      </trkpt>
      <trkpt lat="43.54102" lon="1.47895">
        <ele>212.872</ele>
        <time>2020-03-26T16:32:50Z</time>
      </trkpt>
      <trkpt lat="43.54095" lon="1.47897">
        <ele>212.906</ele>
        <time>2020-03-26T16:32:56Z</time>
      </trkpt>
      <trkpt lat="43.54088" lon="1.47898">
        <ele>212.939</ele>
        <time>2020-03-26T16:33:02Z</time>
      </trkpt>
      <trkpt lat="43.54082" lon="1.47897">
        <ele>212.97</ele>
        <time>2020-03-26T16:33:08Z</time>
      </trkpt>
      <trkpt lat="43.54076" lon="1.47899">
        <ele>213.004</ele>
        <time>2020-03-26T16:33:14Z</time>
      </trkpt>
      <trkpt lat="43.5407" lon="1.47903">
        <ele>213.042</ele>
        <time>2020-03-26T16:33:20Z</time>
      </trkpt>
      <trkpt lat="43.54063" lon="1.47906">
        <ele>213.085</ele>
        <time>2020-03-26T16:33:26Z</time>
      </trkpt>
      <trkpt lat="43.54058" lon="1.47908">
        <ele>213.123</ele>
        <time>2020-03-26T16:33:31Z</time>
      </trkpt>
      <trkpt lat="43.54057" lon="1.47909">
        <ele>213.14</ele>
        <time>2020-03-26T16:33:36Z</time>
      </trkpt>
      <trkpt lat="43.54056" lon="1.47909">
        <ele>213.144</ele>
        <time>2020-03-26T16:33:42Z</time>
      </trkpt>
      <trkpt lat="43.54056" lon="1.47909">
        <ele>213.153</ele>
        <time>2020-03-26T16:33:48Z</time>
      </trkpt>
      <trkpt lat="43.54055" lon="1.47908">
        <ele>213.174</ele>
        <time>2020-03-26T16:33:53Z</time>
      </trkpt>
      <trkpt lat="43.54053" lon="1.47901">
        <ele>213.206</ele>
        <time>2020-03-26T16:33:59Z</time>
      </trkpt>
      <trkpt lat="43.5405" lon="1.47897">
        <ele>213.232</ele>
        <time>2020-03-26T16:34:04Z</time>
      </trkpt>
      <trkpt lat="43.54046" lon="1.47896">
        <ele>213.257</ele>
        <time>2020-03-26T16:34:09Z</time>
      </trkpt>
      <trkpt lat="43.5404" lon="1.47894">
        <ele>213.282</ele>
        <time>2020-03-26T16:34:15Z</time>
      </trkpt>
      <trkpt lat="43.54036" lon="1.47893">
        <ele>213.301</ele>
        <time>2020-03-26T16:34:20Z</time>
      </trkpt>
      <trkpt lat="43.54029" lon="1.47888">
        <ele>213.324</ele>
        <time>2020-03-26T16:34:26Z</time>
      </trkpt>
      <trkpt lat="43.54024" lon="1.47882">
        <ele>213.343</ele>
        <time>2020-03-26T16:34:31Z</time>
      </trkpt>
      <trkpt lat="43.54018" lon="1.47876">
        <ele>213.367</ele>
        <time>2020-03-26T16:34:37Z</time>
      </trkpt>
      <trkpt lat="43.54015" lon="1.47868">
        <ele>213.396</ele>
        <time>2020-03-26T16:34:43Z</time>
      </trkpt>
      <trkpt lat="43.54012" lon="1.47864">
        <ele>213.427</ele>
        <time>2020-03-26T16:34:49Z</time>
      </trkpt>
      <trkpt lat="43.54009" lon="1.47857">
        <ele>213.451</ele>
        <time>2020-03-26T16:34:54Z</time>
      </trkpt>
      <trkpt lat="43.54003" lon="1.47854">
        <ele>213.481</ele>
        <time>2020-03-26T16:35:00Z</time>
      </trkpt>
      <trkpt lat="43.53998" lon="1.47846">
        <ele>213.513</ele>
        <time>2020-03-26T16:35:05Z</time>
      </trkpt>
      <trkpt lat="43.53995" lon="1.47843">
        <ele>213.542</ele>
        <time>2020-03-26T16:35:10Z</time>
      </trkpt>
      <trkpt lat="43.53991" lon="1.47838">
        <ele>213.576</ele>
        <time>2020-03-26T16:35:16Z</time>
      </trkpt>
      <trkpt lat="43.53988" lon="1.47835">
        <ele>213.607</ele>
        <time>2020-03-26T16:35:22Z</time>
      </trkpt>
      <trkpt lat="43.53984" lon="1.4783">
        <ele>213.631</ele>
        <time>2020-03-26T16:35:27Z</time>
      </trkpt>
      <trkpt lat="43.53978" lon="1.47828">
        <ele>213.658</ele>
        <time>2020-03-26T16:35:33Z</time>
      </trkpt>
      <trkpt lat="43.53973" lon="1.47824">
        <ele>213.678</ele>
        <time>2020-03-26T16:35:38Z</time>
      </trkpt>
      <trkpt lat="43.53969" lon="1.47818">
        <ele>213.701</ele>
        <time>2020-03-26T16:35:44Z</time>
      </trkpt>
      <trkpt lat="43.53964" lon="1.47809">
        <ele>213.722</ele>
        <time>2020-03-26T16:35:50Z</time>
      </trkpt>
      <trkpt lat="43.53958" lon="1.47801">
        <ele>213.743</ele>
        <time>2020-03-26T16:35:56Z</time>
      </trkpt>
      <trkpt lat="43.53955" lon="1.47798">
        <ele>213.761</ele>
        <time>2020-03-26T16:36:02Z</time>
      </trkpt>
      <trkpt lat="43.53955" lon="1.47797">
        <ele>213.78</ele>
        <time>2020-03-26T16:36:07Z</time>
      </trkpt>
      <trkpt lat="43.53955" lon="1.47804">
        <ele>213.8</ele>
        <time>2020-03-26T16:36:13Z</time>
      </trkpt>
      <trkpt lat="43.53952" lon="1.4781">
        <ele>213.812</ele>
        <time>2020-03-26T16:36:19Z</time>
      </trkpt>
      <trkpt lat="43.53945" lon="1.47813">
        <ele>213.822</ele>
        <time>2020-03-26T16:36:25Z</time>
      </trkpt>
      <trkpt lat="43.53938" lon="1.47816">
        <ele>213.825</ele>
        <time>2020-03-26T16:36:30Z</time>
      </trkpt>
      <trkpt lat="43.53931" lon="1.47819">
        <ele>213.826</ele>
        <time>2020-03-26T16:36:36Z</time>
      </trkpt>
      <trkpt lat="43.53925" lon="1.4782">
        <ele>213.828</ele>
        <time>2020-03-26T16:36:41Z</time>
      </trkpt>
      <trkpt lat="43.53918" lon="1.4782">
        <ele>213.834</ele>
        <time>2020-03-26T16:36:46Z</time>
      </trkpt>
      <trkpt lat="43.53912" lon="1.47819">
        <ele>213.85</ele>
        <time>2020-03-26T16:36:52Z</time>
      </trkpt>
      <trkpt lat="43.53907" lon="1.47821">
        <ele>213.874</ele>
        <time>2020-03-26T16:36:58Z</time>
      </trkpt>
      <trkpt lat="43.53901" lon="1.47824">
        <ele>213.901</ele>
        <time>2020-03-26T16:37:04Z</time>
      </trkpt>
      <trkpt lat="43.53897" lon="1.47822">
        <ele>213.926</ele>
        <time>2020-03-26T16:37:10Z</time>
      </trkpt>
      <trkpt lat="43.53892" lon="1.4782">
        <ele>213.958</ele>
        <time>2020-03-26T16:37:15Z</time>
      </trkpt>
      <trkpt lat="43.53884" lon="1.47819">
        <ele>213.999</ele>
        <time>2020-03-26T16:37:21Z</time>
      </trkpt>
      <trkpt lat="43.53878" lon="1.47819">
        <ele>214.041</ele>
        <time>2020-03-26T16:37:27Z</time>
      </trkpt>
      <trkpt lat="43.53872" lon="1.47819">
        <ele>214.074</ele>
        <time>2020-03-26T16:37:32Z</time>
      </trkpt>
      <trkpt lat="43.53867" lon="1.47818">
        <ele>214.112</ele>
        <time>2020-03-26T16:37:37Z</time>
      </trkpt>
      <trkpt lat="43.5386" lon="1.47815">
        <ele>214.164</ele>
        <time>2020-03-26T16:37:43Z</time>
      </trkpt>
      <trkpt lat="43.53853" lon="1.47815">
        <ele>214.217</ele>
        <time>2020-03-26T16:37:49Z</time>
      </trkpt>
      <trkpt lat="43.53849" lon="1.47815">
        <ele>214.263</ele>
        <time>2020-03-26T16:37:54Z</time>
      </trkpt>
      <trkpt lat="43.53842" lon="1.47813">
        <ele>214.318</ele>
        <time>2020-03-26T16:38:00Z</time>
      </trkpt>
      <trkpt lat="43.53836" lon="1.47811">
        <ele>214.377</ele>
        <time>2020-03-26T16:38:06Z</time>
      </trkpt>
      <trkpt lat="43.53829" lon="1.4781">
        <ele>214.44</ele>
        <time>2020-03-26T16:38:12Z</time>
      </trkpt>
      <trkpt lat="43.53825" lon="1.4781">
        <ele>214.497</ele>
        <time>2020-03-26T16:38:17Z</time>
      </trkpt>
      <trkpt lat="43.53819" lon="1.4781">
        <ele>214.56</ele>
        <time>2020-03-26T16:38:22Z</time>
      </trkpt>
      <trkpt lat="43.53814" lon="1.47808">
        <ele>214.639</ele>
        <time>2020-03-26T16:38:28Z</time>
      </trkpt>
      <trkpt lat="43.53808" lon="1.47808">
        <ele>214.727</ele>
        <time>2020-03-26T16:38:34Z</time>
      </trkpt>
      <trkpt lat="43.53804" lon="1.47809">
        <ele>214.801</ele>
        <time>2020-03-26T16:38:39Z</time>
      </trkpt>
      <trkpt lat="43.53799" lon="1.47812">
        <ele>214.889</ele>
        <time>2020-03-26T16:38:45Z</time>
      </trkpt>
      <trkpt lat="43.53797" lon="1.47814">
        <ele>214.948</ele>
        <time>2020-03-26T16:38:50Z</time>
      </trkpt>
      <trkpt lat="43.53797" lon="1.47814">
        <ele>214.977</ele>
        <time>2020-03-26T16:38:55Z</time>
      </trkpt>
      <trkpt lat="43.53799" lon="1.4782">
        <ele>215.065</ele>
        <time>2020-03-26T16:39:01Z</time>
      </trkpt>
      <trkpt lat="43.53799" lon="1.4783">
        <ele>215.217</ele>
        <time>2020-03-26T16:39:07Z</time>
      </trkpt>
      <trkpt lat="43.53794" lon="1.47831">
        <ele>215.352</ele>
        <time>2020-03-26T16:39:12Z</time>
      </trkpt>
      <trkpt lat="43.5379" lon="1.47833">
        <ele>215.506</ele>
        <time>2020-03-26T16:39:17Z</time>
      </trkpt>
      <trkpt lat="43.53785" lon="1.47842">
        <ele>215.69</ele>
        <time>2020-03-26T16:39:23Z</time>
      </trkpt>
      <trkpt lat="43.53782" lon="1.47847">
        <ele>215.876</ele>
        <time>2020-03-26T16:39:29Z</time>
      </trkpt>
      <trkpt lat="43.53779" lon="1.47853">
        <ele>216.034</ele>
        <time>2020-03-26T16:39:34Z</time>
      </trkpt>
      <trkpt lat="43.53775" lon="1.47861">
        <ele>216.224</ele>
        <time>2020-03-26T16:39:40Z</time>
      </trkpt>
      <trkpt lat="43.53773" lon="1.47866">
        <ele>216.379</ele>
        <time>2020-03-26T16:39:45Z</time>
      </trkpt>
      <trkpt lat="43.53771" lon="1.47872">
        <ele>216.534</ele>
        <time>2020-03-26T16:39:50Z</time>
      </trkpt>
      <trkpt lat="43.53768" lon="1.47881">
        <ele>216.719</ele>
        <time>2020-03-26T16:39:56Z</time>
      </trkpt>
      <trkpt lat="43.53765" lon="1.47891">
        <ele>216.905</ele>
        <time>2020-03-26T16:40:02Z</time>
      </trkpt>
      <trkpt lat="43.53763" lon="1.47899">
        <ele>217.084</ele>
        <time>2020-03-26T16:40:08Z</time>
      </trkpt>
      <trkpt lat="43.5376" lon="1.47907">
        <ele>217.251</ele>
        <time>2020-03-26T16:40:14Z</time>
      </trkpt>
      <trkpt lat="43.53757" lon="1.47911">
        <ele>217.386</ele>
        <time>2020-03-26T16:40:19Z</time>
      </trkpt>
      <trkpt lat="43.53752" lon="1.47915">
        <ele>217.528</ele>
        <time>2020-03-26T16:40:24Z</time>
      </trkpt>
      <trkpt lat="43.5375" lon="1.4792">
        <ele>217.674</ele>
        <time>2020-03-26T16:40:29Z</time>
      </trkpt>
      <trkpt lat="43.53745" lon="1.47927">
        <ele>217.845</ele>
        <time>2020-03-26T16:40:35Z</time>
      </trkpt>
      <trkpt lat="43.53742" lon="1.47936">
        <ele>218.011</ele>
        <time>2020-03-26T16:40:41Z</time>
      </trkpt>
      <trkpt lat="43.53739" lon="1.47941">
        <ele>218.148</ele>
        <time>2020-03-26T16:40:46Z</time>
      </trkpt>
      <trkpt lat="43.53736" lon="1.47945">
        <ele>218.282</ele>
        <time>2020-03-26T16:40:51Z</time>
      </trkpt>
      <trkpt lat="43.53732" lon="1.47952">
        <ele>218.443</ele>
        <time>2020-03-26T16:40:57Z</time>
      </trkpt>
      <trkpt lat="43.53727" lon="1.47962">
        <ele>218.608</ele>
        <time>2020-03-26T16:41:03Z</time>
      </trkpt>
      <trkpt lat="43.53724" lon="1.47967">
        <ele>218.744</ele>
        <time>2020-03-26T16:41:08Z</time>
      </trkpt>
      <trkpt lat="43.53721" lon="1.47972">
        <ele>218.909</ele>
        <time>2020-03-26T16:41:14Z</time>
      </trkpt>
      <trkpt lat="43.53717" lon="1.4798">
        <ele>219.072</ele>
        <time>2020-03-26T16:41:20Z</time>
      </trkpt>
      <trkpt lat="43.53713" lon="1.4799">
        <ele>219.241</ele>
        <time>2020-03-26T16:41:26Z</time>
      </trkpt>
      <trkpt lat="43.53709" lon="1.47997">
        <ele>219.415</ele>
        <time>2020-03-26T16:41:32Z</time>
      </trkpt>
      <trkpt lat="43.53706" lon="1.48003">
        <ele>219.562</ele>
        <time>2020-03-26T16:41:37Z</time>
      </trkpt>
      <trkpt lat="43.53704" lon="1.4801">
        <ele>219.736</ele>
        <time>2020-03-26T16:41:43Z</time>
      </trkpt>
      <trkpt lat="43.53702" lon="1.48016">
        <ele>219.876</ele>
        <time>2020-03-26T16:41:48Z</time>
      </trkpt>
      <trkpt lat="43.53699" lon="1.48022">
        <ele>220.015</ele>
        <time>2020-03-26T16:41:53Z</time>
      </trkpt>
      <trkpt lat="43.53695" lon="1.48032">
        <ele>220.183</ele>
        <time>2020-03-26T16:41:59Z</time>
      </trkpt>
      <trkpt lat="43.53692" lon="1.4804">
        <ele>220.343</ele>
        <time>2020-03-26T16:42:05Z</time>
      </trkpt>
      <trkpt lat="43.53689" lon="1.48044">
        <ele>220.471</ele>
        <time>2020-03-26T16:42:10Z</time>
      </trkpt>
      <trkpt lat="43.53686" lon="1.4805">
        <ele>220.615</ele>
        <time>2020-03-26T16:42:16Z</time>
      </trkpt>
      <trkpt lat="43.53682" lon="1.48055">
        <ele>220.748</ele>
        <time>2020-03-26T16:42:22Z</time>
      </trkpt>
      <trkpt lat="43.53678" lon="1.48062">
        <ele>220.873</ele>
        <time>2020-03-26T16:42:28Z</time>
      </trkpt>
      <trkpt lat="43.53675" lon="1.48068">
        <ele>220.986</ele>
        <time>2020-03-26T16:42:34Z</time>
      </trkpt>
      <trkpt lat="43.53672" lon="1.48073">
        <ele>221.07</ele>
        <time>2020-03-26T16:42:39Z</time>
      </trkpt>
      <trkpt lat="43.53667" lon="1.48081">
        <ele>221.168</ele>
        <time>2020-03-26T16:42:45Z</time>
      </trkpt>
      <trkpt lat="43.53664" lon="1.48084">
        <ele>221.247</ele>
        <time>2020-03-26T16:42:50Z</time>
      </trkpt>
      <trkpt lat="43.5366" lon="1.48087">
        <ele>221.338</ele>
        <time>2020-03-26T16:42:56Z</time>
      </trkpt>
      <trkpt lat="43.53654" lon="1.48091">
        <ele>221.424</ele>
        <time>2020-03-26T16:43:02Z</time>
      </trkpt>
      <trkpt lat="43.5365" lon="1.48094">
        <ele>221.495</ele>
        <time>2020-03-26T16:43:07Z</time>
      </trkpt>
      <trkpt lat="43.53646" lon="1.48098">
        <ele>221.564</ele>
        <time>2020-03-26T16:43:12Z</time>
      </trkpt>
      <trkpt lat="43.53641" lon="1.48103">
        <ele>221.644</ele>
        <time>2020-03-26T16:43:18Z</time>
      </trkpt>
      <trkpt lat="43.53639" lon="1.48112">
        <ele>221.714</ele>
        <time>2020-03-26T16:43:23Z</time>
      </trkpt>
      <trkpt lat="43.5364" lon="1.4812">
        <ele>221.8</ele>
        <time>2020-03-26T16:43:29Z</time>
      </trkpt>
      <trkpt lat="43.53643" lon="1.48124">
        <ele>221.884</ele>
        <time>2020-03-26T16:43:35Z</time>
      </trkpt>
      <trkpt lat="43.53646" lon="1.48132">
        <ele>221.95</ele>
        <time>2020-03-26T16:43:40Z</time>
      </trkpt>
      <trkpt lat="43.53648" lon="1.48139">
        <ele>222.025</ele>
        <time>2020-03-26T16:43:46Z</time>
      </trkpt>
      <trkpt lat="43.5365" lon="1.48148">
        <ele>222.082</ele>
        <time>2020-03-26T16:43:51Z</time>
      </trkpt>
      <trkpt lat="43.53653" lon="1.48154">
        <ele>222.135</ele>
        <time>2020-03-26T16:43:56Z</time>
      </trkpt>
      <trkpt lat="43.53657" lon="1.48161">
        <ele>222.183</ele>
        <time>2020-03-26T16:44:01Z</time>
      </trkpt>
      <trkpt lat="43.53659" lon="1.48169">
        <ele>222.236</ele>
        <time>2020-03-26T16:44:07Z</time>
      </trkpt>
      <trkpt lat="43.53663" lon="1.48175">
        <ele>222.274</ele>
        <time>2020-03-26T16:44:12Z</time>
      </trkpt>
      <trkpt lat="43.53665" lon="1.48182">
        <ele>222.314</ele>
        <time>2020-03-26T16:44:18Z</time>
      </trkpt>
      <trkpt lat="43.53667" lon="1.48191">
        <ele>222.347</ele>
        <time>2020-03-26T16:44:24Z</time>
      </trkpt>
      <trkpt lat="43.53671" lon="1.48198">
        <ele>222.373</ele>
        <time>2020-03-26T16:44:30Z</time>
      </trkpt>
      <trkpt lat="43.53673" lon="1.48205">
        <ele>222.392</ele>
        <time>2020-03-26T16:44:35Z</time>
      </trkpt>
      <trkpt lat="43.53676" lon="1.48209">
        <ele>222.406</ele>
        <time>2020-03-26T16:44:40Z</time>
      </trkpt>
      <trkpt lat="43.53682" lon="1.48213">
        <ele>222.424</ele>
        <time>2020-03-26T16:44:46Z</time>
      </trkpt>
      <trkpt lat="43.53688" lon="1.48211">
        <ele>222.435</ele>
        <time>2020-03-26T16:44:52Z</time>
      </trkpt>
      <trkpt lat="43.53694" lon="1.48207">
        <ele>222.438</ele>
        <time>2020-03-26T16:44:58Z</time>
      </trkpt>
      <trkpt lat="43.53698" lon="1.48203">
        <ele>222.435</ele>
        <time>2020-03-26T16:45:04Z</time>
      </trkpt>
      <trkpt lat="43.53702" lon="1.48201">
        <ele>222.426</ele>
        <time>2020-03-26T16:45:10Z</time>
      </trkpt>
      <trkpt lat="43.53707" lon="1.48199">
        <ele>222.415</ele>
        <time>2020-03-26T16:45:15Z</time>
      </trkpt>
      <trkpt lat="43.53711" lon="1.48195">
        <ele>222.398</ele>
        <time>2020-03-26T16:45:21Z</time>
      </trkpt>
      <trkpt lat="43.53714" lon="1.48193">
        <ele>222.389</ele>
        <time>2020-03-26T16:45:26Z</time>
      </trkpt>
      <trkpt lat="43.53721" lon="1.48186">
        <ele>222.376</ele>
        <time>2020-03-26T16:45:32Z</time>
      </trkpt>
      <trkpt lat="43.53725" lon="1.48182">
        <ele>222.364</ele>
        <time>2020-03-26T16:45:37Z</time>
      </trkpt>
      <trkpt lat="43.53729" lon="1.48178">
        <ele>222.351</ele>
        <time>2020-03-26T16:45:43Z</time>
      </trkpt>
      <trkpt lat="43.53733" lon="1.48173">
        <ele>222.335</ele>
        <time>2020-03-26T16:45:49Z</time>
      </trkpt>
      <trkpt lat="43.53738" lon="1.4817">
        <ele>222.315</ele>
        <time>2020-03-26T16:45:55Z</time>
      </trkpt>
      <trkpt lat="43.53742" lon="1.48164">
        <ele>222.295</ele>
        <time>2020-03-26T16:46:00Z</time>
      </trkpt>
      <trkpt lat="43.53747" lon="1.48159">
        <ele>222.27</ele>
        <time>2020-03-26T16:46:06Z</time>
      </trkpt>
      <trkpt lat="43.53753" lon="1.48152">
        <ele>222.246</ele>
        <time>2020-03-26T16:46:12Z</time>
      </trkpt>
      <trkpt lat="43.53757" lon="1.48146">
        <ele>222.223</ele>
        <time>2020-03-26T16:46:18Z</time>
      </trkpt>
      <trkpt lat="43.53759" lon="1.48144">
        <ele>222.203</ele>
        <time>2020-03-26T16:46:23Z</time>
      </trkpt>
      <trkpt lat="43.53765" lon="1.48139">
        <ele>222.181</ele>
        <time>2020-03-26T16:46:29Z</time>
      </trkpt>
      <trkpt lat="43.53772" lon="1.48134">
        <ele>222.157</ele>
        <time>2020-03-26T16:46:35Z</time>
      </trkpt>
      <trkpt lat="43.53777" lon="1.48129">
        <ele>222.136</ele>
        <time>2020-03-26T16:46:40Z</time>
      </trkpt>
      <trkpt lat="43.53782" lon="1.48124">
        <ele>222.115</ele>
        <time>2020-03-26T16:46:46Z</time>
      </trkpt>
      <trkpt lat="43.53788" lon="1.4812">
        <ele>222.096</ele>
        <time>2020-03-26T16:46:52Z</time>
      </trkpt>
      <trkpt lat="43.53792" lon="1.48116">
        <ele>222.084</ele>
        <time>2020-03-26T16:46:57Z</time>
      </trkpt>
      <trkpt lat="43.53793" lon="1.48114">
        <ele>222.077</ele>
        <time>2020-03-26T16:47:02Z</time>
      </trkpt>
      <trkpt lat="43.538" lon="1.4811">
        <ele>222.072</ele>
        <time>2020-03-26T16:47:08Z</time>
      </trkpt>
      <trkpt lat="43.53804" lon="1.48108">
        <ele>222.071</ele>
        <time>2020-03-26T16:47:13Z</time>
      </trkpt>
      <trkpt lat="43.53808" lon="1.48103">
        <ele>222.071</ele>
        <time>2020-03-26T16:47:18Z</time>
      </trkpt>
      <trkpt lat="43.53813" lon="1.48098">
        <ele>222.074</ele>
        <time>2020-03-26T16:47:23Z</time>
      </trkpt>
      <trkpt lat="43.53818" lon="1.48092">
        <ele>222.083</ele>
        <time>2020-03-26T16:47:29Z</time>
      </trkpt>
      <trkpt lat="43.53819" lon="1.48085">
        <ele>222.091</ele>
        <time>2020-03-26T16:47:34Z</time>
      </trkpt>
      <trkpt lat="43.53824" lon="1.48081">
        <ele>222.098</ele>
        <time>2020-03-26T16:47:40Z</time>
      </trkpt>
      <trkpt lat="43.53829" lon="1.48076">
        <ele>222.103</ele>
        <time>2020-03-26T16:47:46Z</time>
      </trkpt>
      <trkpt lat="43.53833" lon="1.48072">
        <ele>222.103</ele>
        <time>2020-03-26T16:47:51Z</time>
      </trkpt>
      <trkpt lat="43.53841" lon="1.48067">
        <ele>222.107</ele>
        <time>2020-03-26T16:47:57Z</time>
      </trkpt>
      <trkpt lat="43.53845" lon="1.48061">
        <ele>222.113</ele>
        <time>2020-03-26T16:48:02Z</time>
      </trkpt>
      <trkpt lat="43.53851" lon="1.48057">
        <ele>222.123</ele>
        <time>2020-03-26T16:48:08Z</time>
      </trkpt>
      <trkpt lat="43.53856" lon="1.48053">
        <ele>222.139</ele>
        <time>2020-03-26T16:48:14Z</time>
      </trkpt>
      <trkpt lat="43.53856" lon="1.48053">
        <ele>222.141</ele>
        <time>2020-03-26T16:48:19Z</time>
      </trkpt>
      <trkpt lat="43.53858" lon="1.48052">
        <ele>222.165</ele>
        <time>2020-03-26T16:48:25Z</time>
      </trkpt>
      <trkpt lat="43.5386" lon="1.48051">
        <ele>222.193</ele>
        <time>2020-03-26T16:48:30Z</time>
      </trkpt>
      <trkpt lat="43.53861" lon="1.48047">
        <ele>222.23</ele>
        <time>2020-03-26T16:48:36Z</time>
      </trkpt>
      <trkpt lat="43.53867" lon="1.4804">
        <ele>222.263</ele>
        <time>2020-03-26T16:48:42Z</time>
      </trkpt>
      <trkpt lat="43.53871" lon="1.48034">
        <ele>222.288</ele>
        <time>2020-03-26T16:48:48Z</time>
      </trkpt>
      <trkpt lat="43.53873" lon="1.48032">
        <ele>222.307</ele>
        <time>2020-03-26T16:48:54Z</time>
      </trkpt>
      <trkpt lat="43.53873" lon="1.48031">
        <ele>222.327</ele>
        <time>2020-03-26T16:48:59Z</time>
      </trkpt>
      <trkpt lat="43.53875" lon="1.48028">
        <ele>222.364</ele>
        <time>2020-03-26T16:49:05Z</time>
      </trkpt>
      <trkpt lat="43.53877" lon="1.48023">
        <ele>222.388</ele>
        <time>2020-03-26T16:49:11Z</time>
      </trkpt>
      <trkpt lat="43.5388" lon="1.48021">
        <ele>222.407</ele>
        <time>2020-03-26T16:49:16Z</time>
      </trkpt>
      <trkpt lat="43.53881" lon="1.48016">
        <ele>222.419</ele>
        <time>2020-03-26T16:49:21Z</time>
      </trkpt>
      <trkpt lat="43.5389" lon="1.48018">
        <ele>222.437</ele>
        <time>2020-03-26T16:49:27Z</time>
      </trkpt>
      <trkpt lat="43.53896" lon="1.48013">
        <ele>222.455</ele>
        <time>2020-03-26T16:49:33Z</time>
      </trkpt>
      <trkpt lat="43.539" lon="1.48006">
        <ele>222.473</ele>
        <time>2020-03-26T16:49:38Z</time>
      </trkpt>
      <trkpt lat="43.53903" lon="1.47998">
        <ele>222.501</ele>
        <time>2020-03-26T16:49:44Z</time>
      </trkpt>
      <trkpt lat="43.53907" lon="1.47994">
        <ele>222.525</ele>
        <time>2020-03-26T16:49:50Z</time>
      </trkpt>
      <trkpt lat="43.53909" lon="1.47989">
        <ele>222.529</ele>
        <time>2020-03-26T16:49:56Z</time>
      </trkpt>
      <trkpt lat="43.53911" lon="1.47984">
        <ele>222.523</ele>
        <time>2020-03-26T16:50:02Z</time>
      </trkpt>
      <trkpt lat="43.53916" lon="1.47985">
        <ele>222.506</ele>
        <time>2020-03-26T16:50:07Z</time>
      </trkpt>
      <trkpt lat="43.53925" lon="1.47981">
        <ele>222.476</ele>
        <time>2020-03-26T16:50:13Z</time>
      </trkpt>
      <trkpt lat="43.5393" lon="1.47978">
        <ele>222.452</ele>
        <time>2020-03-26T16:50:18Z</time>
      </trkpt>
      <trkpt lat="43.53936" lon="1.47975">
        <ele>222.435</ele>
        <time>2020-03-26T16:50:23Z</time>
      </trkpt>
      <trkpt lat="43.53943" lon="1.47971">
        <ele>222.419</ele>
        <time>2020-03-26T16:50:29Z</time>
      </trkpt>
      <trkpt lat="43.53949" lon="1.47966">
        <ele>222.417</ele>
        <time>2020-03-26T16:50:35Z</time>
      </trkpt>
      <trkpt lat="43.53954" lon="1.47961">
        <ele>222.411</ele>
        <time>2020-03-26T16:50:41Z</time>
      </trkpt>
      <trkpt lat="43.53962" lon="1.47957">
        <ele>222.407</ele>
        <time>2020-03-26T16:50:46Z</time>
      </trkpt>
      <trkpt lat="43.5397" lon="1.47953">
        <ele>222.408</ele>
        <time>2020-03-26T16:50:52Z</time>
      </trkpt>
      <trkpt lat="43.53974" lon="1.47948">
        <ele>222.417</ele>
        <time>2020-03-26T16:50:57Z</time>
      </trkpt>
      <trkpt lat="43.53979" lon="1.47944">
        <ele>222.435</ele>
        <time>2020-03-26T16:51:03Z</time>
      </trkpt>
      <trkpt lat="43.53984" lon="1.4794">
        <ele>222.448</ele>
        <time>2020-03-26T16:51:09Z</time>
      </trkpt>
      <trkpt lat="43.5399" lon="1.47936">
        <ele>222.452</ele>
        <time>2020-03-26T16:51:14Z</time>
      </trkpt>
      <trkpt lat="43.53992" lon="1.47934">
        <ele>222.452</ele>
        <time>2020-03-26T16:51:19Z</time>
      </trkpt>
      <trkpt lat="43.53995" lon="1.47929">
        <ele>222.449</ele>
        <time>2020-03-26T16:51:25Z</time>
      </trkpt>
      <trkpt lat="43.53997" lon="1.47926">
        <ele>222.442</ele>
        <time>2020-03-26T16:51:30Z</time>
      </trkpt>
      <trkpt lat="43.54003" lon="1.47923">
        <ele>222.431</ele>
        <time>2020-03-26T16:51:36Z</time>
      </trkpt>
      <trkpt lat="43.54007" lon="1.47921">
        <ele>222.416</ele>
        <time>2020-03-26T16:51:42Z</time>
      </trkpt>
      <trkpt lat="43.54012" lon="1.47916">
        <ele>222.396</ele>
        <time>2020-03-26T16:51:48Z</time>
      </trkpt>
      <trkpt lat="43.54017" lon="1.4791">
        <ele>222.381</ele>
        <time>2020-03-26T16:51:53Z</time>
      </trkpt>
      <trkpt lat="43.54019" lon="1.47904">
        <ele>222.365</ele>
        <time>2020-03-26T16:51:59Z</time>
      </trkpt>
      <trkpt lat="43.54019" lon="1.47904">
        <ele>222.364</ele>
        <time>2020-03-26T16:52:05Z</time>
      </trkpt>
      <trkpt lat="43.5402" lon="1.47902">
        <ele>222.36</ele>
        <time>2020-03-26T16:52:10Z</time>
      </trkpt>
      <trkpt lat="43.54023" lon="1.47896">
        <ele>222.348</ele>
        <time>2020-03-26T16:52:16Z</time>
      </trkpt>
      <trkpt lat="43.54026" lon="1.47893">
        <ele>222.338</ele>
        <time>2020-03-26T16:52:22Z</time>
      </trkpt>
      <trkpt lat="43.54034" lon="1.47892">
        <ele>222.321</ele>
        <time>2020-03-26T16:52:28Z</time>
      </trkpt>
      <trkpt lat="43.54039" lon="1.4789">
        <ele>222.307</ele>
        <time>2020-03-26T16:52:33Z</time>
      </trkpt>
      <trkpt lat="43.54046" lon="1.47887">
        <ele>222.289</ele>
        <time>2020-03-26T16:52:39Z</time>
      </trkpt>
      <trkpt lat="43.54051" lon="1.47884">
        <ele>222.267</ele>
        <time>2020-03-26T16:52:45Z</time>
      </trkpt>
      <trkpt lat="43.54058" lon="1.47881">
        <ele>222.24</ele>
        <time>2020-03-26T16:52:51Z</time>
      </trkpt>
      <trkpt lat="43.54068" lon="1.4788">
        <ele>222.212</ele>
        <time>2020-03-26T16:52:57Z</time>
      </trkpt>
      <trkpt lat="43.54074" lon="1.47878">
        <ele>222.19</ele>
        <time>2020-03-26T16:53:03Z</time>
      </trkpt>
      <trkpt lat="43.54079" lon="1.47878">
        <ele>222.175</ele>
        <time>2020-03-26T16:53:08Z</time>
      </trkpt>
      <trkpt lat="43.54086" lon="1.47881">
        <ele>222.153</ele>
        <time>2020-03-26T16:53:14Z</time>
      </trkpt>
      <trkpt lat="43.5409" lon="1.47877">
        <ele>222.124</ele>
        <time>2020-03-26T16:53:19Z</time>
      </trkpt>
      <trkpt lat="43.54097" lon="1.47873">
        <ele>222.073</ele>
        <time>2020-03-26T16:53:25Z</time>
      </trkpt>
      <trkpt lat="43.54102" lon="1.47871">
        <ele>222.028</ele>
        <time>2020-03-26T16:53:30Z</time>
      </trkpt>
      <trkpt lat="43.54108" lon="1.47869">
        <ele>221.976</ele>
        <time>2020-03-26T16:53:36Z</time>
      </trkpt>
      <trkpt lat="43.54112" lon="1.47867">
        <ele>221.932</ele>
        <time>2020-03-26T16:53:41Z</time>
      </trkpt>
      <trkpt lat="43.54118" lon="1.47863">
        <ele>221.883</ele>
        <time>2020-03-26T16:53:47Z</time>
      </trkpt>
      <trkpt lat="43.54123" lon="1.47859">
        <ele>221.84</ele>
        <time>2020-03-26T16:53:52Z</time>
      </trkpt>
      <trkpt lat="43.54129" lon="1.47855">
        <ele>221.779</ele>
        <time>2020-03-26T16:53:58Z</time>
      </trkpt>
      <trkpt lat="43.54136" lon="1.47852">
        <ele>221.711</ele>
        <time>2020-03-26T16:54:04Z</time>
      </trkpt>
      <trkpt lat="43.54142" lon="1.47851">
        <ele>221.643</ele>
        <time>2020-03-26T16:54:10Z</time>
      </trkpt>
      <trkpt lat="43.54147" lon="1.47849">
        <ele>221.59</ele>
        <time>2020-03-26T16:54:15Z</time>
      </trkpt>
      <trkpt lat="43.54152" lon="1.47845">
        <ele>221.537</ele>
        <time>2020-03-26T16:54:20Z</time>
      </trkpt>
      <trkpt lat="43.54162" lon="1.47841">
        <ele>221.461</ele>
        <time>2020-03-26T16:54:26Z</time>
      </trkpt>
      <trkpt lat="43.54169" lon="1.47837">
        <ele>221.386</ele>
        <time>2020-03-26T16:54:31Z</time>
      </trkpt>
      <trkpt lat="43.54177" lon="1.47833">
        <ele>221.285</ele>
        <time>2020-03-26T16:54:37Z</time>
      </trkpt>
      <trkpt lat="43.54181" lon="1.47831">
        <ele>221.2</ele>
        <time>2020-03-26T16:54:42Z</time>
      </trkpt>
      <trkpt lat="43.54184" lon="1.47827">
        <ele>221.113</ele>
        <time>2020-03-26T16:54:47Z</time>
      </trkpt>
      <trkpt lat="43.54189" lon="1.47824">
        <ele>221.027</ele>
        <time>2020-03-26T16:54:52Z</time>
      </trkpt>
      <trkpt lat="43.54196" lon="1.4782">
        <ele>220.926</ele>
        <time>2020-03-26T16:54:58Z</time>
      </trkpt>
      <trkpt lat="43.54202" lon="1.47814">
        <ele>220.833</ele>
        <time>2020-03-26T16:55:04Z</time>
      </trkpt>
      <trkpt lat="43.54206" lon="1.4781">
        <ele>220.742</ele>
        <time>2020-03-26T16:55:10Z</time>
      </trkpt>
      <trkpt lat="43.54211" lon="1.47806">
        <ele>220.651</ele>
        <time>2020-03-26T16:55:16Z</time>
      </trkpt>
      <trkpt lat="43.54216" lon="1.47804">
        <ele>220.579</ele>
        <time>2020-03-26T16:55:21Z</time>
      </trkpt>
      <trkpt lat="43.54218" lon="1.47803">
        <ele>220.526</ele>
        <time>2020-03-26T16:55:27Z</time>
      </trkpt>
      <trkpt lat="43.54218" lon="1.47803">
        <ele>220.521</ele>
        <time>2020-03-26T16:55:32Z</time>
      </trkpt>
      <trkpt lat="43.54223" lon="1.47801">
        <ele>220.458</ele>
        <time>2020-03-26T16:55:38Z</time>
      </trkpt>
      <trkpt lat="43.54227" lon="1.47799">
        <ele>220.39</ele>
        <time>2020-03-26T16:55:44Z</time>
      </trkpt>
      <trkpt lat="43.54232" lon="1.47791">
        <ele>220.328</ele>
        <time>2020-03-26T16:55:49Z</time>
      </trkpt>
      <trkpt lat="43.5424" lon="1.47788">
        <ele>220.244</ele>
        <time>2020-03-26T16:55:55Z</time>
      </trkpt>
      <trkpt lat="43.54247" lon="1.47784">
        <ele>220.155</ele>
        <time>2020-03-26T16:56:01Z</time>
      </trkpt>
      <trkpt lat="43.54253" lon="1.4778">
        <ele>220.065</ele>
        <time>2020-03-26T16:56:07Z</time>
      </trkpt>
      <trkpt lat="43.54257" lon="1.47776">
        <ele>219.968</ele>
        <time>2020-03-26T16:56:13Z</time>
      </trkpt>
      <trkpt lat="43.54264" lon="1.47773">
        <ele>219.864</ele>
        <time>2020-03-26T16:56:19Z</time>
      </trkpt>
      <trkpt lat="43.5427" lon="1.47768">
        <ele>219.776</ele>
        <time>2020-03-26T16:56:24Z</time>
      </trkpt>
      <trkpt lat="43.54278" lon="1.47764">
        <ele>219.675</ele>
        <time>2020-03-26T16:56:30Z</time>
      </trkpt>
      <trkpt lat="43.54278" lon="1.47763">
        <ele>219.584</ele>
        <time>2020-03-26T16:56:36Z</time>
      </trkpt>
      <trkpt lat="43.54277" lon="1.47761">
        <ele>219.516</ele>
        <time>2020-03-26T16:56:41Z</time>
      </trkpt>
      <trkpt lat="43.5428" lon="1.47756">
        <ele>219.441</ele>
        <time>2020-03-26T16:56:46Z</time>
      </trkpt>
      <trkpt lat="43.54289" lon="1.47754">
        <ele>219.347</ele>
        <time>2020-03-26T16:56:52Z</time>
      </trkpt>
      <trkpt lat="43.54297" lon="1.4775">
        <ele>219.259</ele>
        <time>2020-03-26T16:56:58Z</time>
      </trkpt>
      <trkpt lat="43.54306" lon="1.47747">
        <ele>219.168</ele>
        <time>2020-03-26T16:57:04Z</time>
      </trkpt>
      <trkpt lat="43.54315" lon="1.47743">
        <ele>219.094</ele>
        <time>2020-03-26T16:57:09Z</time>
      </trkpt>
      <trkpt lat="43.54322" lon="1.4774">
        <ele>219.014</ele>
        <time>2020-03-26T16:57:15Z</time>
      </trkpt>
      <trkpt lat="43.54329" lon="1.47737">
        <ele>218.952</ele>
        <time>2020-03-26T16:57:20Z</time>
      </trkpt>
      <trkpt lat="43.54335" lon="1.47733">
        <ele>218.872</ele>
        <time>2020-03-26T16:57:26Z</time>
      </trkpt>
      <trkpt lat="43.5434" lon="1.47729">
        <ele>218.803</ele>
        <time>2020-03-26T16:57:31Z</time>
      </trkpt>
      <trkpt lat="43.54343" lon="1.47724">
        <ele>218.739</ele>
        <time>2020-03-26T16:57:36Z</time>
      </trkpt>
      <trkpt lat="43.54345" lon="1.47721">
        <ele>218.662</ele>
        <time>2020-03-26T16:57:42Z</time>
      </trkpt>
      <trkpt lat="43.54348" lon="1.47718">
        <ele>218.594</ele>
        <time>2020-03-26T16:57:47Z</time>
      </trkpt>
      <trkpt lat="43.54354" lon="1.47714">
        <ele>218.509</ele>
        <time>2020-03-26T16:57:53Z</time>
      </trkpt>
      <trkpt lat="43.54359" lon="1.47713">
        <ele>218.439</ele>
        <time>2020-03-26T16:57:58Z</time>
      </trkpt>
      <trkpt lat="43.54362" lon="1.47712">
        <ele>218.373</ele>
        <time>2020-03-26T16:58:03Z</time>
      </trkpt>
      <trkpt lat="43.54372" lon="1.47706">
        <ele>218.312</ele>
        <time>2020-03-26T16:58:08Z</time>
      </trkpt>
      <trkpt lat="43.54373" lon="1.47701">
        <ele>218.25</ele>
        <time>2020-03-26T16:58:14Z</time>
      </trkpt>
      <trkpt lat="43.54378" lon="1.47698">
        <ele>218.188</ele>
        <time>2020-03-26T16:58:19Z</time>
      </trkpt>
      <trkpt lat="43.54384" lon="1.47694">
        <ele>218.126</ele>
        <time>2020-03-26T16:58:25Z</time>
      </trkpt>
      <trkpt lat="43.54388" lon="1.47691">
        <ele>218.07</ele>
        <time>2020-03-26T16:58:30Z</time>
      </trkpt>
      <trkpt lat="43.54391" lon="1.47686">
        <ele>218.02</ele>
        <time>2020-03-26T16:58:35Z</time>
      </trkpt>
      <trkpt lat="43.54397" lon="1.47682">
        <ele>217.959</ele>
        <time>2020-03-26T16:58:41Z</time>
      </trkpt>
      <trkpt lat="43.54403" lon="1.4768">
        <ele>217.895</ele>
        <time>2020-03-26T16:58:47Z</time>
      </trkpt>
      <trkpt lat="43.54406" lon="1.47675">
        <ele>217.843</ele>
        <time>2020-03-26T16:58:52Z</time>
      </trkpt>
      <trkpt lat="43.5441" lon="1.47672">
        <ele>217.793</ele>
        <time>2020-03-26T16:58:57Z</time>
      </trkpt>
      <trkpt lat="43.54414" lon="1.47667">
        <ele>217.731</ele>
        <time>2020-03-26T16:59:03Z</time>
      </trkpt>
      <trkpt lat="43.54421" lon="1.47662">
        <ele>217.678</ele>
        <time>2020-03-26T16:59:08Z</time>
      </trkpt>
      <trkpt lat="43.54427" lon="1.47657">
        <ele>217.617</ele>
        <time>2020-03-26T16:59:14Z</time>
      </trkpt>
      <trkpt lat="43.54433" lon="1.47651">
        <ele>217.552</ele>
        <time>2020-03-26T16:59:20Z</time>
      </trkpt>
      <trkpt lat="43.54438" lon="1.47647">
        <ele>217.495</ele>
        <time>2020-03-26T16:59:25Z</time>
      </trkpt>
      <trkpt lat="43.54443" lon="1.47642">
        <ele>217.439</ele>
        <time>2020-03-26T16:59:30Z</time>
      </trkpt>
      <trkpt lat="43.54445" lon="1.4764">
        <ele>217.381</ele>
        <time>2020-03-26T16:59:35Z</time>
      </trkpt>
      <trkpt lat="43.54452" lon="1.47635">
        <ele>217.313</ele>
        <time>2020-03-26T16:59:41Z</time>
      </trkpt>
      <trkpt lat="43.54455" lon="1.47629">
        <ele>217.248</ele>
        <time>2020-03-26T16:59:47Z</time>
      </trkpt>
      <trkpt lat="43.54456" lon="1.47625">
        <ele>217.195</ele>
        <time>2020-03-26T16:59:52Z</time>
      </trkpt>
      <trkpt lat="43.54459" lon="1.4762">
        <ele>217.13</ele>
        <time>2020-03-26T16:59:58Z</time>
      </trkpt>
      <trkpt lat="43.54463" lon="1.47615">
        <ele>217.077</ele>
        <time>2020-03-26T17:00:03Z</time>
      </trkpt>
      <trkpt lat="43.54468" lon="1.47609">
        <ele>217.01</ele>
        <time>2020-03-26T17:00:09Z</time>
      </trkpt>
      <trkpt lat="43.54471" lon="1.47602">
        <ele>216.939</ele>
        <time>2020-03-26T17:00:15Z</time>
      </trkpt>
      <trkpt lat="43.54475" lon="1.47595">
        <ele>216.879</ele>
        <time>2020-03-26T17:00:20Z</time>
      </trkpt>
      <trkpt lat="43.54481" lon="1.4759">
        <ele>216.811</ele>
        <time>2020-03-26T17:00:26Z</time>
      </trkpt>
      <trkpt lat="43.54485" lon="1.47584">
        <ele>216.742</ele>
        <time>2020-03-26T17:00:32Z</time>
      </trkpt>
      <trkpt lat="43.54491" lon="1.47578">
        <ele>216.675</ele>
        <time>2020-03-26T17:00:38Z</time>
      </trkpt>
      <trkpt lat="43.54495" lon="1.47571">
        <ele>216.606</ele>
        <time>2020-03-26T17:00:44Z</time>
      </trkpt>
      <trkpt lat="43.545" lon="1.47566">
        <ele>216.542</ele>
        <time>2020-03-26T17:00:50Z</time>
      </trkpt>
      <trkpt lat="43.54504" lon="1.47561">
        <ele>216.477</ele>
        <time>2020-03-26T17:00:56Z</time>
      </trkpt>
      <trkpt lat="43.54511" lon="1.47555">
        <ele>216.413</ele>
        <time>2020-03-26T17:01:02Z</time>
      </trkpt>
      <trkpt lat="43.54516" lon="1.4755">
        <ele>216.352</ele>
        <time>2020-03-26T17:01:08Z</time>
      </trkpt>
      <trkpt lat="43.5452" lon="1.47545">
        <ele>216.303</ele>
        <time>2020-03-26T17:01:13Z</time>
      </trkpt>
      <trkpt lat="43.54527" lon="1.47536">
        <ele>216.254</ele>
        <time>2020-03-26T17:01:19Z</time>
      </trkpt>
      <trkpt lat="43.54534" lon="1.47531">
        <ele>216.222</ele>
        <time>2020-03-26T17:01:24Z</time>
      </trkpt>
      <trkpt lat="43.54537" lon="1.47526">
        <ele>216.189</ele>
        <time>2020-03-26T17:01:30Z</time>
      </trkpt>
      <trkpt lat="43.54541" lon="1.47521">
        <ele>216.162</ele>
        <time>2020-03-26T17:01:36Z</time>
      </trkpt>
      <trkpt lat="43.54545" lon="1.47516">
        <ele>216.138</ele>
        <time>2020-03-26T17:01:41Z</time>
      </trkpt>
      <trkpt lat="43.54548" lon="1.4751">
        <ele>216.119</ele>
        <time>2020-03-26T17:01:47Z</time>
      </trkpt>
      <trkpt lat="43.54552" lon="1.47502">
        <ele>216.1</ele>
        <time>2020-03-26T17:01:53Z</time>
      </trkpt>
      <trkpt lat="43.54556" lon="1.47496">
        <ele>216.08</ele>
        <time>2020-03-26T17:01:59Z</time>
      </trkpt>
      <trkpt lat="43.54561" lon="1.47491">
        <ele>216.047</ele>
        <time>2020-03-26T17:02:05Z</time>
      </trkpt>
      <trkpt lat="43.54563" lon="1.47486">
        <ele>216.009</ele>
        <time>2020-03-26T17:02:10Z</time>
      </trkpt>
      <trkpt lat="43.54566" lon="1.4748">
        <ele>215.969</ele>
        <time>2020-03-26T17:02:15Z</time>
      </trkpt>
      <trkpt lat="43.54571" lon="1.47475">
        <ele>215.917</ele>
        <time>2020-03-26T17:02:21Z</time>
      </trkpt>
      <trkpt lat="43.54574" lon="1.4747">
        <ele>215.876</ele>
        <time>2020-03-26T17:02:26Z</time>
      </trkpt>
      <trkpt lat="43.54575" lon="1.47461">
        <ele>215.832</ele>
        <time>2020-03-26T17:02:32Z</time>
      </trkpt>
      <trkpt lat="43.54578" lon="1.47457">
        <ele>215.812</ele>
        <time>2020-03-26T17:02:38Z</time>
      </trkpt>
      <trkpt lat="43.54579" lon="1.47457">
        <ele>215.79</ele>
        <time>2020-03-26T17:02:43Z</time>
      </trkpt>
      <trkpt lat="43.54585" lon="1.47455">
        <ele>215.776</ele>
        <time>2020-03-26T17:02:49Z</time>
      </trkpt>
      <trkpt lat="43.54587" lon="1.47453">
        <ele>215.773</ele>
        <time>2020-03-26T17:02:55Z</time>
      </trkpt>
      <trkpt lat="43.54584" lon="1.47456">
        <ele>215.739</ele>
        <time>2020-03-26T17:03:01Z</time>
      </trkpt>
      <trkpt lat="43.54579" lon="1.47456">
        <ele>215.712</ele>
        <time>2020-03-26T17:03:06Z</time>
      </trkpt>
      <trkpt lat="43.54579" lon="1.47452">
        <ele>215.678</ele>
        <time>2020-03-26T17:03:12Z</time>
      </trkpt>
      <trkpt lat="43.54579" lon="1.4745">
        <ele>215.642</ele>
        <time>2020-03-26T17:03:18Z</time>
      </trkpt>
      <trkpt lat="43.54579" lon="1.47449">
        <ele>215.615</ele>
        <time>2020-03-26T17:03:23Z</time>
      </trkpt>
      <trkpt lat="43.54588" lon="1.47448">
        <ele>215.443</ele>
        <time>2020-03-26T17:03:30Z</time>
      </trkpt>
      <trkpt lat="43.546" lon="1.47469">
        <ele>215.428</ele>
        <time>2020-03-26T17:03:36Z</time>
      </trkpt>
      <trkpt lat="43.54609" lon="1.47498">
        <ele>215.353</ele>
        <time>2020-03-26T17:03:49Z</time>
      </trkpt>
      <trkpt lat="43.54589" lon="1.47486">
        <ele>215.353</ele>
        <time>2020-03-26T17:03:54Z</time>
      </trkpt>
      <trkpt lat="43.54589" lon="1.47466">
        <ele>215.356</ele>
        <time>2020-03-26T17:04:00Z</time>
      </trkpt>
      <trkpt lat="43.54593" lon="1.47463">
        <ele>215.352</ele>
        <time>2020-03-26T17:04:05Z</time>
      </trkpt>
      <trkpt lat="43.54596" lon="1.4746">
        <ele>215.346</ele>
        <time>2020-03-26T17:04:10Z</time>
      </trkpt>
      <trkpt lat="43.54598" lon="1.47455">
        <ele>215.338</ele>
        <time>2020-03-26T17:04:15Z</time>
      </trkpt>
      <trkpt lat="43.54601" lon="1.47452">
        <ele>215.331</ele>
        <time>2020-03-26T17:04:21Z</time>
      </trkpt>
      <trkpt lat="43.54603" lon="1.4745">
        <ele>215.328</ele>
        <time>2020-03-26T17:04:27Z</time>
      </trkpt>
      <trkpt lat="43.54607" lon="1.47453">
        <ele>215.33</ele>
        <time>2020-03-26T17:04:32Z</time>
      </trkpt>
      <trkpt lat="43.54611" lon="1.47453">
        <ele>215.336</ele>
        <time>2020-03-26T17:04:37Z</time>
      </trkpt>
      <trkpt lat="43.54618" lon="1.4745">
        <ele>215.37</ele>
        <time>2020-03-26T17:04:43Z</time>
      </trkpt>
      <trkpt lat="43.54626" lon="1.47446">
        <ele>215.431</ele>
        <time>2020-03-26T17:04:48Z</time>
      </trkpt>
      <trkpt lat="43.54631" lon="1.47443">
        <ele>215.504</ele>
        <time>2020-03-26T17:04:53Z</time>
      </trkpt>
      <trkpt lat="43.54638" lon="1.47438">
        <ele>215.598</ele>
        <time>2020-03-26T17:04:59Z</time>
      </trkpt>
      <trkpt lat="43.54643" lon="1.47432">
        <ele>215.691</ele>
        <time>2020-03-26T17:05:05Z</time>
      </trkpt>
      <trkpt lat="43.54644" lon="1.47427">
        <ele>215.765</ele>
        <time>2020-03-26T17:05:10Z</time>
      </trkpt>
      <trkpt lat="43.54648" lon="1.47422">
        <ele>215.857</ele>
        <time>2020-03-26T17:05:16Z</time>
      </trkpt>
      <trkpt lat="43.54652" lon="1.47418">
        <ele>215.945</ele>
        <time>2020-03-26T17:05:22Z</time>
      </trkpt>
      <trkpt lat="43.54656" lon="1.47411">
        <ele>216.026</ele>
        <time>2020-03-26T17:05:28Z</time>
      </trkpt>
      <trkpt lat="43.54658" lon="1.47405">
        <ele>216.084</ele>
        <time>2020-03-26T17:05:33Z</time>
      </trkpt>
      <trkpt lat="43.54661" lon="1.47401">
        <ele>216.152</ele>
        <time>2020-03-26T17:05:39Z</time>
      </trkpt>
      <trkpt lat="43.54665" lon="1.47395">
        <ele>216.22</ele>
        <time>2020-03-26T17:05:45Z</time>
      </trkpt>
      <trkpt lat="43.5467" lon="1.47389">
        <ele>216.287</ele>
        <time>2020-03-26T17:05:51Z</time>
      </trkpt>
      <trkpt lat="43.54674" lon="1.47386">
        <ele>216.34</ele>
        <time>2020-03-26T17:05:56Z</time>
      </trkpt>
      <trkpt lat="43.54679" lon="1.47382">
        <ele>216.39</ele>
        <time>2020-03-26T17:06:01Z</time>
      </trkpt>
      <trkpt lat="43.54681" lon="1.47379">
        <ele>216.451</ele>
        <time>2020-03-26T17:06:07Z</time>
      </trkpt>
      <trkpt lat="43.54683" lon="1.47382">
        <ele>216.496</ele>
        <time>2020-03-26T17:06:12Z</time>
      </trkpt>
      <trkpt lat="43.54688" lon="1.47387">
        <ele>216.538</ele>
        <time>2020-03-26T17:06:17Z</time>
      </trkpt>
      <trkpt lat="43.54693" lon="1.47388">
        <ele>216.585</ele>
        <time>2020-03-26T17:06:23Z</time>
      </trkpt>
      <trkpt lat="43.54695" lon="1.47392">
        <ele>216.618</ele>
        <time>2020-03-26T17:06:28Z</time>
      </trkpt>
      <trkpt lat="43.54701" lon="1.47395">
        <ele>216.653</ele>
        <time>2020-03-26T17:06:34Z</time>
      </trkpt>
      <trkpt lat="43.54708" lon="1.47402">
        <ele>216.688</ele>
        <time>2020-03-26T17:06:40Z</time>
      </trkpt>
      <trkpt lat="43.54714" lon="1.4741">
        <ele>216.733</ele>
        <time>2020-03-26T17:06:46Z</time>
      </trkpt>
      <trkpt lat="43.54717" lon="1.47411">
        <ele>216.765</ele>
        <time>2020-03-26T17:06:51Z</time>
      </trkpt>
      <trkpt lat="43.54723" lon="1.47413">
        <ele>216.803</ele>
        <time>2020-03-26T17:06:57Z</time>
      </trkpt>
      <trkpt lat="43.54728" lon="1.47416">
        <ele>216.826</ele>
        <time>2020-03-26T17:07:02Z</time>
      </trkpt>
      <trkpt lat="43.54731" lon="1.47417">
        <ele>216.848</ele>
        <time>2020-03-26T17:07:08Z</time>
      </trkpt>
      <trkpt lat="43.54737" lon="1.47425">
        <ele>216.869</ele>
        <time>2020-03-26T17:07:14Z</time>
      </trkpt>
      <trkpt lat="43.54741" lon="1.47429">
        <ele>216.882</ele>
        <time>2020-03-26T17:07:19Z</time>
      </trkpt>
      <trkpt lat="43.54746" lon="1.47434">
        <ele>216.891</ele>
        <time>2020-03-26T17:07:25Z</time>
      </trkpt>
      <trkpt lat="43.5475" lon="1.47441">
        <ele>216.895</ele>
        <time>2020-03-26T17:07:31Z</time>
      </trkpt>
      <trkpt lat="43.54753" lon="1.47442">
        <ele>216.899</ele>
        <time>2020-03-26T17:07:37Z</time>
      </trkpt>
      <trkpt lat="43.54757" lon="1.47445">
        <ele>216.9</ele>
        <time>2020-03-26T17:07:42Z</time>
      </trkpt>
      <trkpt lat="43.54761" lon="1.47446">
        <ele>216.899</ele>
        <time>2020-03-26T17:07:47Z</time>
      </trkpt>
      <trkpt lat="43.54768" lon="1.4746">
        <ele>216.895</ele>
        <time>2020-03-26T17:07:53Z</time>
      </trkpt>
      <trkpt lat="43.54773" lon="1.47463">
        <ele>216.891</ele>
        <time>2020-03-26T17:07:59Z</time>
      </trkpt>
      <trkpt lat="43.54779" lon="1.47466">
        <ele>216.884</ele>
        <time>2020-03-26T17:08:04Z</time>
      </trkpt>
      <trkpt lat="43.54781" lon="1.47469">
        <ele>216.876</ele>
        <time>2020-03-26T17:08:10Z</time>
      </trkpt>
      <trkpt lat="43.54784" lon="1.47473">
        <ele>216.86</ele>
        <time>2020-03-26T17:08:16Z</time>
      </trkpt>
      <trkpt lat="43.54789" lon="1.47477">
        <ele>216.845</ele>
        <time>2020-03-26T17:08:21Z</time>
      </trkpt>
      <trkpt lat="43.54794" lon="1.47481">
        <ele>216.831</ele>
        <time>2020-03-26T17:08:26Z</time>
      </trkpt>
      <trkpt lat="43.548" lon="1.47488">
        <ele>216.82</ele>
        <time>2020-03-26T17:08:32Z</time>
      </trkpt>
      <trkpt lat="43.54803" lon="1.47495">
        <ele>216.81</ele>
        <time>2020-03-26T17:08:37Z</time>
      </trkpt>
      <trkpt lat="43.54806" lon="1.47499">
        <ele>216.791</ele>
        <time>2020-03-26T17:08:43Z</time>
      </trkpt>
      <trkpt lat="43.54808" lon="1.47501">
        <ele>216.769</ele>
        <time>2020-03-26T17:08:48Z</time>
      </trkpt>
      <trkpt lat="43.54814" lon="1.47505">
        <ele>216.744</ele>
        <time>2020-03-26T17:08:54Z</time>
      </trkpt>
      <trkpt lat="43.54822" lon="1.47506">
        <ele>216.722</ele>
        <time>2020-03-26T17:08:59Z</time>
      </trkpt>
      <trkpt lat="43.54825" lon="1.47512">
        <ele>216.696</ele>
        <time>2020-03-26T17:09:04Z</time>
      </trkpt>
      <trkpt lat="43.54828" lon="1.4752">
        <ele>216.664</ele>
        <time>2020-03-26T17:09:10Z</time>
      </trkpt>
      <trkpt lat="43.54832" lon="1.47526">
        <ele>216.629</ele>
        <time>2020-03-26T17:09:16Z</time>
      </trkpt>
      <trkpt lat="43.54835" lon="1.47533">
        <ele>216.599</ele>
        <time>2020-03-26T17:09:21Z</time>
      </trkpt>
      <trkpt lat="43.54836" lon="1.47537">
        <ele>216.557</ele>
        <time>2020-03-26T17:09:27Z</time>
      </trkpt>
      <trkpt lat="43.54838" lon="1.47545">
        <ele>216.513</ele>
        <time>2020-03-26T17:09:33Z</time>
      </trkpt>
      <trkpt lat="43.54841" lon="1.47548">
        <ele>216.481</ele>
        <time>2020-03-26T17:09:38Z</time>
      </trkpt>
      <trkpt lat="43.54845" lon="1.47555">
        <ele>216.431</ele>
        <time>2020-03-26T17:09:44Z</time>
      </trkpt>
      <trkpt lat="43.54851" lon="1.4756">
        <ele>216.385</ele>
        <time>2020-03-26T17:09:49Z</time>
      </trkpt>
      <trkpt lat="43.54856" lon="1.47565">
        <ele>216.328</ele>
        <time>2020-03-26T17:09:55Z</time>
      </trkpt>
      <trkpt lat="43.54859" lon="1.47571">
        <ele>216.269</ele>
        <time>2020-03-26T17:10:01Z</time>
      </trkpt>
      <trkpt lat="43.54864" lon="1.47577">
        <ele>216.212</ele>
        <time>2020-03-26T17:10:07Z</time>
      </trkpt>
      <trkpt lat="43.54866" lon="1.47581">
        <ele>216.167</ele>
        <time>2020-03-26T17:10:12Z</time>
      </trkpt>
      <trkpt lat="43.54871" lon="1.47588">
        <ele>216.118</ele>
        <time>2020-03-26T17:10:18Z</time>
      </trkpt>
      <trkpt lat="43.54875" lon="1.47596">
        <ele>216.067</ele>
        <time>2020-03-26T17:10:24Z</time>
      </trkpt>
      <trkpt lat="43.54878" lon="1.47603">
        <ele>216.021</ele>
        <time>2020-03-26T17:10:29Z</time>
      </trkpt>
      <trkpt lat="43.54881" lon="1.4761">
        <ele>215.965</ele>
        <time>2020-03-26T17:10:35Z</time>
      </trkpt>
      <trkpt lat="43.54884" lon="1.47617">
        <ele>215.905</ele>
        <time>2020-03-26T17:10:41Z</time>
      </trkpt>
      <trkpt lat="43.54887" lon="1.47625">
        <ele>215.839</ele>
        <time>2020-03-26T17:10:47Z</time>
      </trkpt>
      <trkpt lat="43.54889" lon="1.47631">
        <ele>215.783</ele>
        <time>2020-03-26T17:10:52Z</time>
      </trkpt>
      <trkpt lat="43.54893" lon="1.47639">
        <ele>215.712</ele>
        <time>2020-03-26T17:10:58Z</time>
      </trkpt>
      <trkpt lat="43.54896" lon="1.47648">
        <ele>215.639</ele>
        <time>2020-03-26T17:11:04Z</time>
      </trkpt>
      <trkpt lat="43.54898" lon="1.47657">
        <ele>215.571</ele>
        <time>2020-03-26T17:11:10Z</time>
      </trkpt>
      <trkpt lat="43.54901" lon="1.47667">
        <ele>215.505</ele>
        <time>2020-03-26T17:11:16Z</time>
      </trkpt>
      <trkpt lat="43.54902" lon="1.47675">
        <ele>215.454</ele>
        <time>2020-03-26T17:11:21Z</time>
      </trkpt>
      <trkpt lat="43.54905" lon="1.4768">
        <ele>215.391</ele>
        <time>2020-03-26T17:11:27Z</time>
      </trkpt>
      <trkpt lat="43.5491" lon="1.47686">
        <ele>215.346</ele>
        <time>2020-03-26T17:11:32Z</time>
      </trkpt>
      <trkpt lat="43.54913" lon="1.47692">
        <ele>215.303</ele>
        <time>2020-03-26T17:11:38Z</time>
      </trkpt>
      <trkpt lat="43.54915" lon="1.47701">
        <ele>215.275</ele>
        <time>2020-03-26T17:11:43Z</time>
      </trkpt>
      <trkpt lat="43.54919" lon="1.47712">
        <ele>215.253</ele>
        <time>2020-03-26T17:11:49Z</time>
      </trkpt>
      <trkpt lat="43.54921" lon="1.47718">
        <ele>215.236</ele>
        <time>2020-03-26T17:11:54Z</time>
      </trkpt>
      <trkpt lat="43.54927" lon="1.47716">
        <ele>215.215</ele>
        <time>2020-03-26T17:12:00Z</time>
      </trkpt>
      <trkpt lat="43.5493" lon="1.47713">
        <ele>215.196</ele>
        <time>2020-03-26T17:12:05Z</time>
      </trkpt>
      <trkpt lat="43.54934" lon="1.47709">
        <ele>215.175</ele>
        <time>2020-03-26T17:12:10Z</time>
      </trkpt>
      <trkpt lat="43.54938" lon="1.47706">
        <ele>215.146</ele>
        <time>2020-03-26T17:12:16Z</time>
      </trkpt>
      <trkpt lat="43.54943" lon="1.47703">
        <ele>215.12</ele>
        <time>2020-03-26T17:12:21Z</time>
      </trkpt>
      <trkpt lat="43.54948" lon="1.477">
        <ele>215.087</ele>
        <time>2020-03-26T17:12:27Z</time>
      </trkpt>
      <trkpt lat="43.54953" lon="1.47698">
        <ele>215.062</ele>
        <time>2020-03-26T17:12:32Z</time>
      </trkpt>
      <trkpt lat="43.5496" lon="1.47694">
        <ele>215.037</ele>
        <time>2020-03-26T17:12:38Z</time>
      </trkpt>
      <trkpt lat="43.54966" lon="1.47692">
        <ele>215.018</ele>
        <time>2020-03-26T17:12:43Z</time>
      </trkpt>
      <trkpt lat="43.54972" lon="1.47689">
        <ele>214.999</ele>
        <time>2020-03-26T17:12:49Z</time>
      </trkpt>
      <trkpt lat="43.54976" lon="1.47687">
        <ele>214.984</ele>
        <time>2020-03-26T17:12:54Z</time>
      </trkpt>
      <trkpt lat="43.54981" lon="1.47683">
        <ele>214.966</ele>
        <time>2020-03-26T17:13:00Z</time>
      </trkpt>
      <trkpt lat="43.54986" lon="1.4768">
        <ele>214.948</ele>
        <time>2020-03-26T17:13:06Z</time>
      </trkpt>
      <trkpt lat="43.54991" lon="1.47677">
        <ele>214.933</ele>
        <time>2020-03-26T17:13:11Z</time>
      </trkpt>
      <trkpt lat="43.54995" lon="1.47675">
        <ele>214.916</ele>
        <time>2020-03-26T17:13:16Z</time>
      </trkpt>
      <trkpt lat="43.55001" lon="1.4767">
        <ele>214.888</ele>
        <time>2020-03-26T17:13:22Z</time>
      </trkpt>
      <trkpt lat="43.55008" lon="1.47664">
        <ele>214.86</ele>
        <time>2020-03-26T17:13:28Z</time>
      </trkpt>
      <trkpt lat="43.55014" lon="1.47666">
        <ele>214.836</ele>
        <time>2020-03-26T17:13:34Z</time>
      </trkpt>
      <trkpt lat="43.55017" lon="1.47666">
        <ele>214.822</ele>
        <time>2020-03-26T17:13:39Z</time>
      </trkpt>
      <trkpt lat="43.55021" lon="1.47667">
        <ele>214.813</ele>
        <time>2020-03-26T17:13:44Z</time>
      </trkpt>
      <trkpt lat="43.55024" lon="1.47676">
        <ele>214.802</ele>
        <time>2020-03-26T17:13:50Z</time>
      </trkpt>
      <trkpt lat="43.5503" lon="1.47683">
        <ele>214.798</ele>
        <time>2020-03-26T17:13:55Z</time>
      </trkpt>
      <trkpt lat="43.55036" lon="1.47686">
        <ele>214.799</ele>
        <time>2020-03-26T17:14:01Z</time>
      </trkpt>
      <trkpt lat="43.55036" lon="1.47684">
        <ele>214.798</ele>
        <time>2020-03-26T17:14:07Z</time>
      </trkpt>
      <trkpt lat="43.5504" lon="1.47675">
        <ele>214.773</ele>
        <time>2020-03-26T17:14:12Z</time>
      </trkpt>
      <trkpt lat="43.55043" lon="1.47672">
        <ele>214.766</ele>
        <time>2020-03-26T17:14:18Z</time>
      </trkpt>
      <trkpt lat="43.55029" lon="1.47673">
        <ele>200.6</ele>
        <time>2020-03-26T17:14:36Z</time>
      </trkpt>
      <trkpt lat="43.55048" lon="1.47658">
        <ele>214.701</ele>
        <time>2020-03-26T17:14:51Z</time>
      </trkpt>
    </trkseg>
  </trk>
</gpx>